AZO955 URMM-UHPP
Flight info
| Callsign | AZO955 |
|---|---|
| Flight time | 8h 33m |
| Altitude | 35000 |
| Route | LARIN5L LARIN G481 NIRGA R807 UROBO P135 ANATU L992 NAMOL T376 UTORA A925 HMN R124 ABUTA/K0911F370 R124 TARSA G719 THN G932 PLR T155 GANPA B927 LURES/K0902F390 B927 LUMAG A812 BAKEN BAKEN5N |
| Aircraft | B77L/H-SDE1E2E3FGHIJ2J3J4J5M1RWXY/LB1D1 |
Departure
| Time | 2026-04-26 22:38 |
|---|---|
| Airport | Mineralnye Vody Airport (URMM) |
Arrival
| Time | 2026-04-27 07:11 |
|---|---|
| Airport | Yelizovo Airport (UHPP) |
| Time | Latitude | Longitude | Altitude | Speed | Heading |
|---|---|---|---|---|---|
| 2026-04-26 22:04 | 44.21995 | 43.08885 | 1056 ft | 0 kts | 212° |
| 2026-04-26 22:30 | 44.21992 | 43.08883 | 1055 ft | 1 kts | 210° |
| 2026-04-26 22:30 | 44.21980 | 43.08873 | 1055 ft | 4 kts | 210° |
| 2026-04-26 22:30 | 44.21942 | 43.08865 | 1055 ft | 7 kts | 166° |
| 2026-04-26 22:30 | 44.21894 | 43.08925 | 1055 ft | 12 kts | 127° |
| 2026-04-26 22:31 | 44.21857 | 43.09040 | 1055 ft | 12 kts | 82° |
| 2026-04-26 22:31 | 44.21903 | 43.09094 | 1055 ft | 11 kts | 32° |
| 2026-04-26 22:31 | 44.21978 | 43.09111 | 1056 ft | 13 kts | 344° |
| 2026-04-26 22:31 | 44.22072 | 43.09048 | 1057 ft | 17 kts | 332° |
| 2026-04-26 22:32 | 44.22189 | 43.08963 | 1058 ft | 21 kts | 332° |
| 2026-04-26 22:32 | 44.22333 | 43.08862 | 1057 ft | 17 kts | 331° |
| 2026-04-26 22:32 | 44.22345 | 43.08853 | 1057 ft | 4 kts | 331° |
| 2026-04-26 22:32 | 44.22358 | 43.08844 | 1057 ft | 1 kts | 332° |
| 2026-04-26 22:33 | 44.22398 | 43.08812 | 1057 ft | 14 kts | 329° |
| 2026-04-26 22:33 | 44.22633 | 43.08387 | 1058 ft | 42 kts | 301° |
| 2026-04-26 22:33 | 44.22815 | 43.08003 | 1053 ft | 54 kts | 303° |
| 2026-04-26 22:34 | 44.23011 | 43.07572 | 1056 ft | 37 kts | 302° |
| 2026-04-26 22:34 | 44.23106 | 43.07367 | 1053 ft | 25 kts | 303° |
| 2026-04-26 22:34 | 44.23196 | 43.07163 | 1052 ft | 25 kts | 302° |
| 2026-04-26 22:34 | 44.23288 | 43.06961 | 1051 ft | 25 kts | 302° |
| 2026-04-26 22:35 | 44.23379 | 43.06759 | 1051 ft | 25 kts | 303° |
| 2026-04-26 22:35 | 44.23473 | 43.06559 | 1055 ft | 25 kts | 302° |
| 2026-04-26 22:35 | 44.23537 | 43.06411 | 1055 ft | 5 kts | 298° |
| 2026-04-26 22:35 | 44.23554 | 43.06357 | 1055 ft | 9 kts | 290° |
| 2026-04-26 22:36 | 44.23574 | 43.06288 | 1055 ft | 1 kts | 349° |
| 2026-04-26 22:36 | 44.23585 | 43.06302 | 1056 ft | 1 kts | 65° |
| 2026-04-26 22:36 | 44.23578 | 43.06326 | 1056 ft | 0 kts | 121° |
| 2026-04-26 22:37 | 44.23562 | 43.06361 | 1056 ft | 0 kts | 122° |
| 2026-04-26 22:37 | 44.23531 | 43.06430 | 1055 ft | 21 kts | 123° |
| 2026-04-26 22:37 | 44.23361 | 43.06795 | 1051 ft | 84 kts | 123° |
| 2026-04-26 22:38 | 44.22897 | 43.07823 | 1056 ft | 165 kts | 122° |
| 2026-04-26 22:38 | 44.22170 | 43.09441 | 1212 ft | 220 kts | 122° |
| 2026-04-26 22:38 | 44.21365 | 43.11229 | 2349 ft | 220 kts | 124° |
| 2026-04-26 22:38 | 44.20534 | 43.13044 | 3344 ft | 223 kts | 124° |
| 2026-04-26 22:39 | 44.19650 | 43.14918 | 3584 ft | 241 kts | 125° |
| 2026-04-26 22:39 | 44.18685 | 43.16896 | 4019 ft | 248 kts | 125° |
| 2026-04-26 22:39 | 44.17723 | 43.18843 | 4784 ft | 240 kts | 125° |
| 2026-04-26 22:39 | 44.16779 | 43.20737 | 5410 ft | 238 kts | 125° |
| 2026-04-26 22:40 | 44.15805 | 43.22649 | 5773 ft | 247 kts | 126° |
| 2026-04-26 22:40 | 44.14776 | 43.24622 | 6110 ft | 256 kts | 127° |
| 2026-04-26 22:40 | 44.13708 | 43.26625 | 6613 ft | 257 kts | 127° |
| 2026-04-26 22:40 | 44.12646 | 43.28603 | 7174 ft | 254 kts | 128° |
| 2026-04-26 22:41 | 44.11585 | 43.30566 | 7672 ft | 255 kts | 129° |
| 2026-04-26 22:41 | 44.10505 | 43.32561 | 8009 ft | 262 kts | 129° |
| 2026-04-26 22:41 | 44.09398 | 43.34575 | 8463 ft | 262 kts | 130° |
| 2026-04-26 22:41 | 44.08274 | 43.36602 | 8859 ft | 268 kts | 130° |
| 2026-04-26 22:42 | 44.07061 | 43.38638 | 9023 ft | 277 kts | 144° |
| 2026-04-26 22:42 | 44.05326 | 43.39740 | 9147 ft | 278 kts | 180° |
| 2026-04-26 22:42 | 44.03458 | 43.39258 | 9454 ft | 276 kts | 214° |
| 2026-04-26 22:42 | 44.02142 | 43.37399 | 9863 ft | 273 kts | 246° |
| 2026-04-26 22:43 | 44.01794 | 43.34807 | 10182 ft | 284 kts | 276° |
| 2026-04-26 22:43 | 44.02535 | 43.32185 | 10301 ft | 305 kts | 304° |
| 2026-04-26 22:43 | 44.04039 | 43.29957 | 10468 ft | 328 kts | 316° |
| 2026-04-26 22:43 | 44.05884 | 43.28003 | 10611 ft | 349 kts | 323° |
| 2026-04-26 22:44 | 44.08054 | 43.26304 | 10930 ft | 366 kts | 332° |
| 2026-04-26 22:44 | 44.10477 | 43.25069 | 11467 ft | 377 kts | 342° |
| 2026-04-26 22:44 | 44.13115 | 43.24636 | 12125 ft | 389 kts | 1° |
| 2026-04-26 22:44 | 44.15747 | 43.25646 | 12851 ft | 401 kts | 26° |
| 2026-04-26 22:45 | 44.17917 | 43.28106 | 13566 ft | 410 kts | 50° |
| 2026-04-26 22:45 | 44.19270 | 43.31639 | 14138 ft | 417 kts | 72° |
| 2026-04-26 22:45 | 44.20062 | 43.35540 | 14597 ft | 421 kts | 72° |
| 2026-04-26 22:45 | 44.21274 | 43.39244 | 14952 ft | 424 kts | 51° |
| 2026-04-26 22:46 | 44.23421 | 43.41989 | 15532 ft | 419 kts | 26° |
| 2026-04-26 22:46 | 44.26128 | 43.43316 | 16202 ft | 411 kts | 2° |
| 2026-04-26 22:46 | 44.28932 | 43.43072 | 16824 ft | 403 kts | 339° |
| 2026-04-26 22:46 | 44.31396 | 43.41326 | 17378 ft | 397 kts | 316° |
| 2026-04-26 22:47 | 44.33120 | 43.38371 | 17936 ft | 392 kts | 293° |
| 2026-04-26 22:47 | 44.33813 | 43.34734 | 18464 ft | 391 kts | 270° |
| 2026-04-26 22:47 | 44.33371 | 43.31003 | 19005 ft | 392 kts | 249° |
| 2026-04-26 22:47 | 44.32409 | 43.27463 | 19307 ft | 392 kts | 257° |
| 2026-04-26 22:48 | 44.32194 | 43.23639 | 19658 ft | 400 kts | 275° |
| 2026-04-26 22:48 | 44.32785 | 43.19847 | 20255 ft | 402 kts | 285° |
| 2026-04-26 22:48 | 44.33629 | 43.16114 | 20853 ft | 403 kts | 286° |
| 2026-04-26 22:48 | 44.34496 | 43.12365 | 21363 ft | 407 kts | 287° |
| 2026-04-26 22:49 | 44.35651 | 43.08804 | 21674 ft | 415 kts | 302° |
| 2026-04-26 22:49 | 44.37643 | 43.05833 | 22090 ft | 425 kts | 320° |
| 2026-04-26 22:49 | 44.40204 | 43.03720 | 22672 ft | 432 kts | 333° |
| 2026-04-26 22:49 | 44.43107 | 43.02495 | 23184 ft | 443 kts | 349° |
| 2026-04-26 22:50 | 44.46214 | 43.02316 | 23558 ft | 450 kts | 356° |
| 2026-04-26 22:50 | 44.49357 | 43.02325 | 23893 ft | 454 kts | 355° |
| 2026-04-26 22:50 | 44.52530 | 43.02261 | 24314 ft | 456 kts | 354° |
| 2026-04-26 22:50 | 44.55696 | 43.02144 | 24762 ft | 456 kts | 356° |
| 2026-04-26 22:51 | 44.58879 | 43.02509 | 25081 ft | 466 kts | 7° |
| 2026-04-26 22:51 | 44.62039 | 43.03724 | 25437 ft | 474 kts | 17° |
| 2026-04-26 22:51 | 44.65047 | 43.05709 | 25837 ft | 481 kts | 26° |
| 2026-04-26 22:51 | 44.67939 | 43.08102 | 26226 ft | 483 kts | 27° |
| 2026-04-26 22:52 | 44.70828 | 43.10546 | 26581 ft | 486 kts | 27° |
| 2026-04-26 22:52 | 44.73737 | 43.12999 | 26923 ft | 489 kts | 27° |
| 2026-04-26 22:52 | 44.76669 | 43.15443 | 27283 ft | 491 kts | 27° |
| 2026-04-26 22:52 | 44.79628 | 43.17882 | 27633 ft | 493 kts | 26° |
| 2026-04-26 22:53 | 44.82596 | 43.20313 | 27966 ft | 496 kts | 26° |
| 2026-04-26 22:53 | 44.85587 | 43.22759 | 28280 ft | 498 kts | 26° |
| 2026-04-26 22:53 | 44.88588 | 43.25214 | 28591 ft | 500 kts | 26° |
| 2026-04-26 22:53 | 44.91601 | 43.27686 | 28896 ft | 502 kts | 26° |
| 2026-04-26 22:54 | 44.94589 | 43.30141 | 29163 ft | 504 kts | 26° |
| 2026-04-26 22:54 | 44.97624 | 43.32639 | 29421 ft | 506 kts | 26° |
| 2026-04-26 22:54 | 45.00673 | 43.35138 | 29705 ft | 507 kts | 26° |
| 2026-04-26 22:54 | 45.03734 | 43.37621 | 30022 ft | 507 kts | 25° |
| 2026-04-26 22:55 | 45.06879 | 43.39838 | 30320 ft | 502 kts | 19° |
| 2026-04-26 22:55 | 45.10126 | 43.41600 | 30634 ft | 498 kts | 14° |
| 2026-04-26 22:55 | 45.13435 | 43.42976 | 30936 ft | 493 kts | 8° |
| 2026-04-26 22:55 | 45.16790 | 43.43940 | 31214 ft | 491 kts | 6° |
| 2026-04-26 22:56 | 45.20150 | 43.44821 | 31475 ft | 491 kts | 6° |
| 2026-04-26 22:56 | 45.23507 | 43.45693 | 31742 ft | 490 kts | 6° |
| 2026-04-26 22:56 | 45.26853 | 43.46578 | 32021 ft | 489 kts | 6° |
| 2026-04-26 22:56 | 45.30201 | 43.47484 | 32285 ft | 489 kts | 6° |
| 2026-04-26 22:57 | 45.33548 | 43.48406 | 32530 ft | 489 kts | 6° |
| 2026-04-26 22:57 | 45.36884 | 43.49333 | 32762 ft | 489 kts | 6° |
| 2026-04-26 22:57 | 45.40233 | 43.50265 | 32830 ft | 492 kts | 6° |
| 2026-04-26 22:58 | 45.46943 | 43.52133 | 32863 ft | 489 kts | 6° |
| 2026-04-26 22:58 | 45.53597 | 43.53994 | 32876 ft | 486 kts | 6° |
| 2026-04-26 22:59 | 45.60182 | 43.55842 | 32869 ft | 485 kts | 6° |
| 2026-04-26 22:59 | 45.66797 | 43.57703 | 32870 ft | 485 kts | 6° |
| 2026-04-26 23:00 | 45.73419 | 43.59570 | 32869 ft | 485 kts | 6° |
| 2026-04-26 23:00 | 45.80060 | 43.61447 | 32872 ft | 486 kts | 6° |
| 2026-04-26 23:01 | 45.86710 | 43.63332 | 32868 ft | 487 kts | 6° |
| 2026-04-26 23:01 | 45.93363 | 43.65223 | 32866 ft | 488 kts | 6° |
| 2026-04-26 23:02 | 46.00009 | 43.67116 | 32871 ft | 487 kts | 6° |
| 2026-04-26 23:02 | 46.06654 | 43.69211 | 32859 ft | 489 kts | 8° |
| 2026-04-26 23:03 | 46.13281 | 43.71469 | 32857 ft | 488 kts | 8° |
| 2026-04-26 23:03 | 46.18779 | 43.73331 | 32853 ft | 488 kts | 7° |
| 2026-04-26 23:04 | 46.26459 | 43.75903 | 32849 ft | 488 kts | 7° |
| 2026-04-26 23:04 | 46.33069 | 43.78104 | 32855 ft | 487 kts | 7° |
| 2026-04-26 23:05 | 46.38598 | 43.79959 | 32853 ft | 486 kts | 7° |
| 2026-04-26 23:05 | 46.45179 | 43.82174 | 32848 ft | 485 kts | 7° |
| 2026-04-26 23:06 | 46.51761 | 43.84393 | 32854 ft | 485 kts | 7° |
| 2026-04-26 23:06 | 46.58330 | 43.86638 | 32842 ft | 485 kts | 7° |
| 2026-04-26 23:07 | 46.64904 | 43.88899 | 32842 ft | 485 kts | 7° |
| 2026-04-26 23:07 | 46.71441 | 43.91151 | 32834 ft | 486 kts | 7° |
| 2026-04-26 23:08 | 46.78012 | 43.93417 | 32834 ft | 486 kts | 7° |
| 2026-04-26 23:08 | 46.84594 | 43.95693 | 32831 ft | 486 kts | 7° |
| 2026-04-26 23:09 | 46.91172 | 43.97973 | 32834 ft | 486 kts | 7° |
| 2026-04-26 23:09 | 46.97758 | 44.00262 | 32831 ft | 486 kts | 7° |
| 2026-04-26 23:10 | 47.04311 | 44.02543 | 32822 ft | 487 kts | 7° |
| 2026-04-26 23:10 | 47.10908 | 44.04844 | 32824 ft | 487 kts | 7° |
| 2026-04-26 23:11 | 47.17527 | 44.07154 | 32734 ft | 492 kts | 8° |
| 2026-04-26 23:11 | 47.24261 | 44.09511 | 32819 ft | 503 kts | 8° |
| 2026-04-26 23:12 | 47.31142 | 44.11932 | 32824 ft | 514 kts | 8° |
| 2026-04-26 23:12 | 47.38121 | 44.14396 | 32828 ft | 522 kts | 8° |
| 2026-04-26 23:13 | 47.45213 | 44.16909 | 32821 ft | 525 kts | 8° |
| 2026-04-26 23:13 | 47.52276 | 44.19421 | 32795 ft | 518 kts | 8° |
| 2026-04-26 23:14 | 47.59257 | 44.21905 | 32811 ft | 516 kts | 8° |
| 2026-04-26 23:14 | 47.66245 | 44.24393 | 32807 ft | 517 kts | 8° |
| 2026-04-26 23:15 | 47.73255 | 44.26899 | 32804 ft | 518 kts | 8° |
| 2026-04-26 23:15 | 47.80279 | 44.29418 | 32802 ft | 520 kts | 8° |
| 2026-04-26 23:16 | 47.87323 | 44.31952 | 32799 ft | 522 kts | 8° |
| 2026-04-26 23:16 | 47.94338 | 44.34571 | 32794 ft | 525 kts | 12° |
| 2026-04-26 23:17 | 48.01324 | 44.37869 | 32783 ft | 527 kts | 14° |
| 2026-04-26 23:17 | 48.08297 | 44.41322 | 32785 ft | 528 kts | 14° |
| 2026-04-26 23:18 | 48.15273 | 44.44736 | 32788 ft | 527 kts | 13° |
| 2026-04-26 23:18 | 48.22264 | 44.48125 | 32782 ft | 528 kts | 13° |
| 2026-04-26 23:19 | 48.29250 | 44.51513 | 32780 ft | 528 kts | 13° |
| 2026-04-26 23:19 | 48.36240 | 44.54920 | 32780 ft | 528 kts | 13° |
| 2026-04-26 23:20 | 48.43186 | 44.58317 | 32779 ft | 528 kts | 13° |
| 2026-04-26 23:20 | 48.50176 | 44.61744 | 32774 ft | 528 kts | 13° |
| 2026-04-26 23:21 | 48.57163 | 44.65215 | 32764 ft | 529 kts | 14° |
| 2026-04-26 23:21 | 48.64155 | 44.68726 | 32752 ft | 530 kts | 14° |
| 2026-04-26 23:22 | 48.71161 | 44.72200 | 32756 ft | 530 kts | 13° |
| 2026-04-26 23:22 | 48.78179 | 44.75658 | 32759 ft | 530 kts | 13° |
| 2026-04-26 23:23 | 48.85197 | 44.79128 | 32756 ft | 530 kts | 13° |
| 2026-04-26 23:23 | 48.92237 | 44.82170 | 32762 ft | 529 kts | 10° |
| 2026-04-26 23:24 | 48.99362 | 44.85037 | 32763 ft | 529 kts | 10° |
| 2026-04-26 23:24 | 49.06478 | 44.87971 | 32744 ft | 530 kts | 11° |
| 2026-04-26 23:25 | 49.13587 | 44.90976 | 32748 ft | 530 kts | 11° |
| 2026-04-26 23:25 | 49.20696 | 44.94005 | 32750 ft | 531 kts | 11° |
| 2026-04-26 23:26 | 49.27813 | 44.97042 | 32751 ft | 531 kts | 11° |
| 2026-04-26 23:26 | 49.34942 | 45.00087 | 32745 ft | 532 kts | 11° |
| 2026-04-26 23:27 | 49.42075 | 45.03143 | 32742 ft | 533 kts | 11° |
| 2026-04-26 23:27 | 49.49176 | 45.06196 | 32741 ft | 533 kts | 11° |
| 2026-04-26 23:28 | 49.56334 | 45.09282 | 32732 ft | 534 kts | 11° |
| 2026-04-26 23:28 | 49.63496 | 45.12379 | 32726 ft | 535 kts | 11° |
| 2026-04-26 23:29 | 49.70664 | 45.15493 | 32731 ft | 535 kts | 11° |
| 2026-04-26 23:29 | 49.77831 | 45.18631 | 32722 ft | 535 kts | 11° |
| 2026-04-26 23:30 | 49.84985 | 45.21776 | 32726 ft | 535 kts | 12° |
| 2026-04-26 23:30 | 49.92148 | 45.24932 | 32713 ft | 535 kts | 12° |
| 2026-04-26 23:31 | 49.99258 | 45.28073 | 32715 ft | 535 kts | 12° |
| 2026-04-26 23:31 | 50.06456 | 45.30924 | 32714 ft | 532 kts | 8° |
| 2026-04-26 23:32 | 50.13697 | 45.33331 | 32715 ft | 532 kts | 7° |
| 2026-04-26 23:32 | 50.20952 | 45.35718 | 32704 ft | 533 kts | 7° |
| 2026-04-26 23:33 | 50.28217 | 45.38178 | 32709 ft | 534 kts | 8° |
| 2026-04-26 23:33 | 50.35487 | 45.40677 | 32695 ft | 535 kts | 8° |
| 2026-04-26 23:34 | 50.42761 | 45.43185 | 32696 ft | 536 kts | 8° |
| 2026-04-26 23:34 | 50.50001 | 45.45685 | 32693 ft | 537 kts | 8° |
| 2026-04-26 23:35 | 50.57301 | 45.48213 | 32687 ft | 537 kts | 8° |
| 2026-04-26 23:35 | 50.64606 | 45.50750 | 32684 ft | 538 kts | 8° |
| 2026-04-26 23:36 | 50.71914 | 45.53297 | 32686 ft | 538 kts | 8° |
| 2026-04-26 23:36 | 50.79234 | 45.55856 | 32681 ft | 538 kts | 8° |
| 2026-04-26 23:37 | 50.86547 | 45.58457 | 32675 ft | 538 kts | 8° |
| 2026-04-26 23:37 | 50.93855 | 45.61081 | 32674 ft | 538 kts | 8° |
| 2026-04-26 23:38 | 51.01151 | 45.63776 | 32654 ft | 540 kts | 12° |
| 2026-04-26 23:38 | 51.08230 | 45.67971 | 32659 ft | 545 kts | 22° |
| 2026-04-26 23:39 | 51.15011 | 45.73179 | 32660 ft | 545 kts | 24° |
| 2026-04-26 23:39 | 51.21851 | 45.78448 | 32669 ft | 545 kts | 23° |
| 2026-04-26 23:40 | 51.28709 | 45.83639 | 32658 ft | 546 kts | 22° |
| 2026-04-26 23:40 | 51.35574 | 45.88817 | 32663 ft | 546 kts | 22° |
| 2026-04-26 23:41 | 51.42450 | 45.94031 | 32664 ft | 546 kts | 23° |
| 2026-04-26 23:41 | 51.49316 | 45.99260 | 32650 ft | 546 kts | 23° |
| 2026-04-26 23:42 | 51.56044 | 46.04963 | 32649 ft | 548 kts | 31° |
| 2026-04-26 23:42 | 51.64967 | 46.16465 | 32637 ft | 549 kts | 41° |
| 2026-04-26 23:43 | 51.70638 | 46.24586 | 32640 ft | 549 kts | 41° |
| 2026-04-26 23:43 | 51.76405 | 46.32680 | 32636 ft | 549 kts | 40° |
| 2026-04-26 23:44 | 51.82022 | 46.41012 | 32647 ft | 548 kts | 47° |
| 2026-04-26 23:44 | 51.86802 | 46.50604 | 32658 ft | 547 kts | 54° |
| 2026-04-26 23:45 | 51.91407 | 46.60411 | 32671 ft | 547 kts | 53° |
| 2026-04-26 23:45 | 51.96083 | 46.70125 | 32681 ft | 547 kts | 53° |
| 2026-04-26 23:46 | 52.00732 | 46.79897 | 32685 ft | 546 kts | 53° |
| 2026-04-26 23:46 | 52.05357 | 46.89681 | 32681 ft | 545 kts | 53° |
| 2026-04-26 23:47 | 52.09940 | 46.99400 | 32684 ft | 545 kts | 53° |
| 2026-04-26 23:47 | 52.14543 | 47.09191 | 32688 ft | 544 kts | 53° |
| 2026-04-26 23:48 | 52.19134 | 47.18993 | 32692 ft | 544 kts | 53° |
| 2026-04-26 23:48 | 52.23711 | 47.28791 | 32700 ft | 543 kts | 53° |
| 2026-04-26 23:49 | 52.28276 | 47.38602 | 32702 ft | 542 kts | 53° |
| 2026-04-26 23:49 | 52.32828 | 47.48420 | 32707 ft | 542 kts | 53° |
| 2026-04-26 23:50 | 52.37374 | 47.58257 | 32731 ft | 541 kts | 53° |
| 2026-04-26 23:50 | 52.41904 | 47.68089 | 32710 ft | 541 kts | 53° |
| 2026-04-26 23:51 | 52.46430 | 47.77956 | 32728 ft | 540 kts | 53° |
| 2026-04-26 23:51 | 52.50936 | 47.87818 | 32726 ft | 540 kts | 53° |
| 2026-04-26 23:52 | 52.55423 | 47.97675 | 33035 ft | 542 kts | 53° |
| 2026-04-26 23:52 | 52.57676 | 48.02637 | 33250 ft | 542 kts | 53° |
| 2026-04-26 23:52 | 52.59928 | 48.07607 | 33543 ft | 540 kts | 53° |
| 2026-04-26 23:53 | 52.62159 | 48.12540 | 33949 ft | 535 kts | 53° |
| 2026-04-26 23:53 | 52.64373 | 48.17449 | 34250 ft | 532 kts | 53° |
| 2026-04-26 23:53 | 52.66573 | 48.22334 | 34439 ft | 532 kts | 53° |
| 2026-04-26 23:53 | 52.68777 | 48.27237 | 34555 ft | 533 kts | 53° |
| 2026-04-26 23:54 | 52.70986 | 48.32164 | 34663 ft | 535 kts | 53° |
| 2026-04-26 23:54 | 52.73198 | 48.37105 | 34711 ft | 537 kts | 53° |
| 2026-04-26 23:54 | 52.77653 | 48.47085 | 34751 ft | 542 kts | 53° |
| 2026-04-26 23:55 | 52.82126 | 48.57148 | 34759 ft | 544 kts | 54° |
| 2026-04-26 23:55 | 52.86601 | 48.67253 | 34762 ft | 544 kts | 54° |
| 2026-04-26 23:56 | 52.90307 | 48.75652 | 34762 ft | 543 kts | 54° |
| 2026-04-26 23:56 | 52.94754 | 48.85769 | 34767 ft | 541 kts | 54° |
| 2026-04-26 23:57 | 52.99150 | 48.95866 | 34775 ft | 538 kts | 54° |
| 2026-04-26 23:57 | 53.03505 | 49.05925 | 34784 ft | 535 kts | 54° |
| 2026-04-26 23:58 | 53.07832 | 49.15943 | 34788 ft | 533 kts | 54° |
| 2026-04-26 23:58 | 53.12151 | 49.25959 | 34795 ft | 532 kts | 54° |
| 2026-04-26 23:59 | 53.16462 | 49.35970 | 34802 ft | 532 kts | 54° |
| 2026-04-26 23:59 | 53.20635 | 49.45697 | 34815 ft | 532 kts | 54° |
| 2026-04-27 00:00 | 53.24326 | 49.54341 | 34815 ft | 533 kts | 54° |
| 2026-04-27 00:00 | 53.28625 | 49.64445 | 34819 ft | 533 kts | 54° |
| 2026-04-27 00:01 | 53.32913 | 49.74562 | 34824 ft | 534 kts | 54° |
| 2026-04-27 00:01 | 53.37197 | 49.84710 | 34825 ft | 534 kts | 54° |
| 2026-04-27 00:02 | 53.41479 | 49.94898 | 34831 ft | 534 kts | 54° |
| 2026-04-27 00:02 | 53.45743 | 50.05082 | 34832 ft | 533 kts | 54° |
| 2026-04-27 00:03 | 53.50000 | 50.15289 | 34828 ft | 533 kts | 54° |
| 2026-04-27 00:03 | 53.54212 | 50.25448 | 34825 ft | 533 kts | 54° |
| 2026-04-27 00:04 | 53.58429 | 50.35701 | 34835 ft | 532 kts | 54° |
| 2026-04-27 00:04 | 53.62629 | 50.45956 | 34839 ft | 532 kts | 54° |
| 2026-04-27 00:05 | 53.66818 | 50.56220 | 34845 ft | 531 kts | 55° |
| 2026-04-27 00:05 | 53.70993 | 50.66488 | 34858 ft | 530 kts | 55° |
| 2026-04-27 00:06 | 53.75149 | 50.76751 | 34861 ft | 529 kts | 55° |
| 2026-04-27 00:06 | 53.79289 | 50.87018 | 34864 ft | 528 kts | 55° |
| 2026-04-27 00:07 | 53.83418 | 50.97297 | 34876 ft | 528 kts | 55° |
| 2026-04-27 00:07 | 53.87511 | 51.07532 | 34874 ft | 528 kts | 55° |
| 2026-04-27 00:08 | 53.91618 | 51.17842 | 34885 ft | 527 kts | 55° |
| 2026-04-27 00:08 | 53.95713 | 51.28166 | 34886 ft | 527 kts | 55° |
| 2026-04-27 00:09 | 53.99805 | 51.38519 | 34888 ft | 527 kts | 55° |
| 2026-04-27 00:09 | 54.04184 | 51.48500 | 34895 ft | 526 kts | 50° |
| 2026-04-27 00:10 | 54.08764 | 51.58202 | 34898 ft | 526 kts | 50° |
| 2026-04-27 00:10 | 54.13330 | 51.67931 | 34899 ft | 526 kts | 50° |
| 2026-04-27 00:11 | 54.17867 | 51.77731 | 34904 ft | 525 kts | 50° |
| 2026-04-27 00:11 | 54.22374 | 51.87536 | 34908 ft | 525 kts | 50° |
| 2026-04-27 00:12 | 54.26880 | 51.97376 | 34905 ft | 525 kts | 51° |
| 2026-04-27 00:12 | 54.31372 | 52.07215 | 34916 ft | 524 kts | 51° |
| 2026-04-27 00:13 | 54.35853 | 52.17069 | 34912 ft | 524 kts | 51° |
| 2026-04-27 00:13 | 54.40300 | 52.26887 | 34918 ft | 524 kts | 51° |
| 2026-04-27 00:14 | 54.44761 | 52.36780 | 34920 ft | 524 kts | 51° |
| 2026-04-27 00:14 | 54.49211 | 52.46710 | 34929 ft | 524 kts | 51° |
| 2026-04-27 00:15 | 54.53652 | 52.56662 | 34928 ft | 524 kts | 51° |
| 2026-04-27 00:15 | 54.58077 | 52.66614 | 34929 ft | 523 kts | 51° |
| 2026-04-27 00:16 | 54.62498 | 52.76591 | 34935 ft | 523 kts | 52° |
| 2026-04-27 00:16 | 54.66452 | 52.87161 | 34938 ft | 524 kts | 60° |
| 2026-04-27 00:17 | 54.69906 | 52.98149 | 34940 ft | 524 kts | 61° |
| 2026-04-27 00:17 | 54.73390 | 53.09218 | 34937 ft | 524 kts | 60° |
| 2026-04-27 00:18 | 54.76911 | 53.20263 | 34940 ft | 524 kts | 60° |
| 2026-04-27 00:18 | 54.80429 | 53.31321 | 34939 ft | 524 kts | 60° |
| 2026-04-27 00:19 | 54.83927 | 53.42417 | 34940 ft | 524 kts | 61° |
| 2026-04-27 00:19 | 54.87401 | 53.53529 | 34945 ft | 524 kts | 61° |
| 2026-04-27 00:20 | 54.90864 | 53.64639 | 34945 ft | 524 kts | 61° |
| 2026-04-27 00:20 | 54.94323 | 53.75788 | 34949 ft | 523 kts | 61° |
| 2026-04-27 00:21 | 54.97771 | 53.86950 | 34941 ft | 523 kts | 61° |
| 2026-04-27 00:21 | 55.01204 | 53.98118 | 34949 ft | 523 kts | 61° |
| 2026-04-27 00:22 | 55.04630 | 54.09314 | 34946 ft | 523 kts | 61° |
| 2026-04-27 00:22 | 55.08021 | 54.20451 | 34957 ft | 523 kts | 61° |
| 2026-04-27 00:23 | 55.11423 | 54.31677 | 34964 ft | 523 kts | 62° |
| 2026-04-27 00:23 | 55.14815 | 54.42921 | 34956 ft | 523 kts | 62° |
| 2026-04-27 00:24 | 55.18199 | 54.54184 | 34962 ft | 523 kts | 62° |
| 2026-04-27 00:24 | 55.21575 | 54.65463 | 34968 ft | 523 kts | 62° |
| 2026-04-27 00:25 | 55.24941 | 54.76741 | 34962 ft | 523 kts | 62° |
| 2026-04-27 00:25 | 55.28299 | 54.88049 | 34984 ft | 522 kts | 62° |
| 2026-04-27 00:26 | 55.31648 | 54.99370 | 34972 ft | 522 kts | 62° |
| 2026-04-27 00:26 | 55.34966 | 55.10638 | 34976 ft | 522 kts | 62° |
| 2026-04-27 00:27 | 55.38294 | 55.21989 | 34987 ft | 522 kts | 62° |
| 2026-04-27 00:27 | 55.41608 | 55.33357 | 34979 ft | 522 kts | 62° |
| 2026-04-27 00:28 | 55.44905 | 55.44744 | 34987 ft | 522 kts | 62° |
| 2026-04-27 00:28 | 55.48192 | 55.56148 | 34983 ft | 522 kts | 62° |
| 2026-04-27 00:29 | 55.51470 | 55.67575 | 34984 ft | 522 kts | 62° |
| 2026-04-27 00:29 | 55.54738 | 55.79022 | 34985 ft | 522 kts | 62° |
| 2026-04-27 00:30 | 55.57899 | 55.90147 | 34986 ft | 522 kts | 62° |
| 2026-04-27 00:30 | 55.61146 | 56.01632 | 34987 ft | 522 kts | 62° |
| 2026-04-27 00:31 | 55.64383 | 56.13140 | 34993 ft | 522 kts | 62° |
| 2026-04-27 00:31 | 55.67611 | 56.24671 | 35000 ft | 522 kts | 63° |
| 2026-04-27 00:32 | 55.70827 | 56.36218 | 35000 ft | 523 kts | 63° |
| 2026-04-27 00:32 | 55.74037 | 56.47802 | 35007 ft | 523 kts | 63° |
| 2026-04-27 00:33 | 55.77234 | 56.59399 | 35010 ft | 523 kts | 63° |
| 2026-04-27 00:33 | 55.80401 | 56.70940 | 35015 ft | 523 kts | 63° |
| 2026-04-27 00:34 | 55.83584 | 56.82584 | 35018 ft | 523 kts | 63° |
| 2026-04-27 00:34 | 55.86767 | 56.94246 | 35026 ft | 523 kts | 63° |
| 2026-04-27 00:35 | 55.89937 | 57.05921 | 35028 ft | 524 kts | 63° |
| 2026-04-27 00:35 | 55.93100 | 57.17635 | 35030 ft | 524 kts | 63° |
| 2026-04-27 00:36 | 55.96252 | 57.29361 | 35042 ft | 524 kts | 63° |
| 2026-04-27 00:36 | 55.99384 | 57.41131 | 35042 ft | 525 kts | 63° |
| 2026-04-27 00:37 | 56.02496 | 57.52936 | 35037 ft | 525 kts | 63° |
| 2026-04-27 00:37 | 56.05597 | 57.64748 | 35048 ft | 525 kts | 63° |
| 2026-04-27 00:38 | 56.08671 | 57.76515 | 35058 ft | 525 kts | 63° |
| 2026-04-27 00:38 | 56.11754 | 57.88367 | 35053 ft | 525 kts | 63° |
| 2026-04-27 00:39 | 56.14832 | 58.00249 | 35057 ft | 525 kts | 63° |
| 2026-04-27 00:39 | 56.17908 | 58.12139 | 35058 ft | 525 kts | 63° |
| 2026-04-27 00:40 | 56.20966 | 58.24026 | 35056 ft | 525 kts | 63° |
| 2026-04-27 00:40 | 56.24015 | 58.35944 | 35060 ft | 525 kts | 63° |
| 2026-04-27 00:41 | 56.27062 | 58.47917 | 35056 ft | 525 kts | 63° |
| 2026-04-27 00:41 | 56.30094 | 58.59893 | 35061 ft | 525 kts | 63° |
| 2026-04-27 00:42 | 56.33097 | 58.71816 | 35060 ft | 526 kts | 63° |
| 2026-04-27 00:42 | 56.36106 | 58.83828 | 35066 ft | 526 kts | 63° |
| 2026-04-27 00:43 | 56.39105 | 58.95865 | 35065 ft | 526 kts | 64° |
| 2026-04-27 00:43 | 56.42097 | 59.07934 | 35069 ft | 526 kts | 64° |
| 2026-04-27 00:44 | 56.44608 | 59.17959 | 35071 ft | 526 kts | 63° |
| 2026-04-27 00:44 | 56.47728 | 59.29928 | 35071 ft | 526 kts | 62° |
| 2026-04-27 00:45 | 56.51376 | 59.43942 | 35071 ft | 527 kts | 62° |
| 2026-04-27 00:45 | 56.54445 | 59.55898 | 35074 ft | 527 kts | 63° |
| 2026-04-27 00:46 | 56.57022 | 59.66010 | 35071 ft | 527 kts | 63° |
| 2026-04-27 00:46 | 56.60087 | 59.78093 | 35074 ft | 527 kts | 63° |
| 2026-04-27 00:47 | 56.63122 | 59.90108 | 35072 ft | 527 kts | 63° |
| 2026-04-27 00:47 | 56.66169 | 60.02208 | 35074 ft | 527 kts | 63° |
| 2026-04-27 00:48 | 56.69225 | 60.14325 | 35063 ft | 527 kts | 63° |
| 2026-04-27 00:48 | 56.72271 | 60.26468 | 35065 ft | 527 kts | 63° |
| 2026-04-27 00:49 | 56.75273 | 60.38642 | 35059 ft | 527 kts | 63° |
| 2026-04-27 00:49 | 56.78243 | 60.50872 | 35059 ft | 527 kts | 63° |
| 2026-04-27 00:50 | 56.82494 | 60.68446 | 35062 ft | 527 kts | 63° |
| 2026-04-27 00:51 | 56.85423 | 60.80605 | 35047 ft | 527 kts | 63° |
| 2026-04-27 00:51 | 56.88852 | 60.92341 | 35047 ft | 518 kts | 47° |
| 2026-04-27 00:52 | 56.93925 | 61.01415 | 35065 ft | 505 kts | 28° |
| 2026-04-27 00:52 | 56.99906 | 61.07982 | 35067 ft | 501 kts | 24° |
| 2026-04-27 00:53 | 57.05939 | 61.14425 | 35071 ft | 503 kts | 25° |
| 2026-04-27 00:53 | 57.11961 | 61.21045 | 35072 ft | 505 kts | 25° |
| 2026-04-27 00:54 | 57.17973 | 61.27754 | 35077 ft | 506 kts | 26° |
| 2026-04-27 00:54 | 57.24007 | 61.34509 | 35073 ft | 506 kts | 25° |
| 2026-04-27 00:55 | 57.30032 | 61.41270 | 35073 ft | 506 kts | 26° |
| 2026-04-27 00:55 | 57.36006 | 61.48052 | 35070 ft | 506 kts | 26° |
| 2026-04-27 00:56 | 57.41991 | 61.54888 | 35072 ft | 505 kts | 26° |
| 2026-04-27 00:56 | 57.47967 | 61.61726 | 35070 ft | 504 kts | 26° |
| 2026-04-27 00:57 | 57.53937 | 61.68543 | 35072 ft | 503 kts | 26° |
| 2026-04-27 00:57 | 57.59902 | 61.75342 | 35074 ft | 502 kts | 26° |
| 2026-04-27 00:58 | 57.65621 | 61.82978 | 35064 ft | 510 kts | 37° |
| 2026-04-27 00:58 | 57.70737 | 61.92225 | 35066 ft | 513 kts | 40° |
| 2026-04-27 00:59 | 57.75756 | 62.01622 | 35072 ft | 514 kts | 40° |
| 2026-04-27 00:59 | 57.80828 | 62.11058 | 35077 ft | 514 kts | 40° |
| 2026-04-27 01:00 | 57.85924 | 62.20482 | 35080 ft | 515 kts | 39° |
| 2026-04-27 01:00 | 57.91034 | 62.29946 | 35078 ft | 515 kts | 40° |
| 2026-04-27 01:01 | 57.96125 | 62.39420 | 35077 ft | 516 kts | 40° |
| 2026-04-27 01:01 | 58.01221 | 62.48951 | 35080 ft | 516 kts | 40° |
| 2026-04-27 01:02 | 58.06309 | 62.58509 | 35079 ft | 516 kts | 40° |
| 2026-04-27 01:02 | 58.11387 | 62.68089 | 35071 ft | 515 kts | 40° |
| 2026-04-27 01:03 | 58.16452 | 62.77683 | 35074 ft | 515 kts | 40° |
| 2026-04-27 01:03 | 58.21473 | 62.87235 | 35072 ft | 514 kts | 40° |
| 2026-04-27 01:04 | 58.26506 | 62.96852 | 35077 ft | 513 kts | 40° |
| 2026-04-27 01:04 | 58.31539 | 63.06510 | 35076 ft | 513 kts | 41° |
| 2026-04-27 01:05 | 58.36561 | 63.16187 | 35066 ft | 513 kts | 41° |
| 2026-04-27 01:05 | 58.41566 | 63.25874 | 35065 ft | 512 kts | 41° |
| 2026-04-27 01:06 | 58.46526 | 63.35514 | 35052 ft | 512 kts | 41° |
| 2026-04-27 01:06 | 58.51515 | 63.45254 | 35054 ft | 511 kts | 41° |
| 2026-04-27 01:07 | 58.56484 | 63.54995 | 35053 ft | 511 kts | 41° |
| 2026-04-27 01:07 | 58.61445 | 63.64764 | 35044 ft | 511 kts | 41° |
| 2026-04-27 01:08 | 58.66398 | 63.74560 | 35035 ft | 511 kts | 41° |
| 2026-04-27 01:08 | 58.71342 | 63.84375 | 35035 ft | 511 kts | 42° |
| 2026-04-27 01:09 | 58.76282 | 63.94221 | 35038 ft | 511 kts | 42° |
| 2026-04-27 01:09 | 58.81217 | 64.04093 | 35025 ft | 512 kts | 42° |
| 2026-04-27 01:10 | 58.86151 | 64.14006 | 35024 ft | 512 kts | 42° |
| 2026-04-27 01:10 | 58.91077 | 64.23949 | 35020 ft | 512 kts | 42° |
| 2026-04-27 01:11 | 58.95995 | 64.33922 | 35021 ft | 512 kts | 42° |
| 2026-04-27 01:11 | 59.00912 | 64.43935 | 35015 ft | 512 kts | 42° |
| 2026-04-27 01:12 | 59.05819 | 64.53973 | 35013 ft | 512 kts | 43° |
| 2026-04-27 01:12 | 59.10688 | 64.63976 | 35009 ft | 512 kts | 43° |
| 2026-04-27 01:13 | 59.15575 | 64.74061 | 35005 ft | 512 kts | 43° |
| 2026-04-27 01:13 | 59.20454 | 64.84177 | 35001 ft | 511 kts | 43° |
| 2026-04-27 01:14 | 59.25314 | 64.94298 | 35001 ft | 511 kts | 43° |
| 2026-04-27 01:14 | 59.30168 | 65.04449 | 34996 ft | 510 kts | 43° |
| 2026-04-27 01:15 | 59.35007 | 65.14616 | 34992 ft | 510 kts | 44° |
| 2026-04-27 01:15 | 59.39837 | 65.24811 | 34992 ft | 510 kts | 44° |
| 2026-04-27 01:16 | 59.44657 | 65.35025 | 34988 ft | 510 kts | 44° |
| 2026-04-27 01:16 | 59.49444 | 65.45214 | 34985 ft | 510 kts | 44° |
| 2026-04-27 01:17 | 59.54247 | 65.55483 | 34982 ft | 510 kts | 44° |
| 2026-04-27 01:17 | 59.59048 | 65.65793 | 34977 ft | 510 kts | 44° |
| 2026-04-27 01:18 | 59.63843 | 65.76139 | 34975 ft | 511 kts | 45° |
| 2026-04-27 01:18 | 59.68636 | 65.86527 | 34972 ft | 511 kts | 45° |
| 2026-04-27 01:19 | 59.73413 | 65.96973 | 34968 ft | 512 kts | 46° |
| 2026-04-27 01:19 | 59.78088 | 66.07606 | 34969 ft | 512 kts | 46° |
| 2026-04-27 01:20 | 59.82746 | 66.18327 | 34961 ft | 512 kts | 46° |
| 2026-04-27 01:20 | 59.87400 | 66.29034 | 34961 ft | 512 kts | 46° |
| 2026-04-27 01:21 | 59.92031 | 66.39709 | 34957 ft | 512 kts | 46° |
| 2026-04-27 01:21 | 59.96681 | 66.50478 | 34949 ft | 512 kts | 47° |
| 2026-04-27 01:22 | 60.01318 | 66.61265 | 34933 ft | 512 kts | 47° |
| 2026-04-27 01:22 | 60.05941 | 66.72079 | 34934 ft | 511 kts | 47° |
| 2026-04-27 01:23 | 60.10547 | 66.82918 | 34945 ft | 511 kts | 47° |
| 2026-04-27 01:23 | 60.15151 | 66.93804 | 34931 ft | 511 kts | 47° |
| 2026-04-27 01:24 | 60.19742 | 67.04709 | 34922 ft | 511 kts | 47° |
| 2026-04-27 01:24 | 60.24321 | 67.15637 | 34921 ft | 511 kts | 47° |
| 2026-04-27 01:25 | 60.28891 | 67.26593 | 34916 ft | 511 kts | 47° |
| 2026-04-27 01:25 | 60.33443 | 67.37563 | 34906 ft | 511 kts | 47° |
| 2026-04-27 01:26 | 60.37969 | 67.48520 | 34898 ft | 511 kts | 48° |
| 2026-04-27 01:26 | 60.42512 | 67.59569 | 34890 ft | 511 kts | 48° |
| 2026-04-27 01:27 | 60.47048 | 67.70656 | 34878 ft | 511 kts | 48° |
| 2026-04-27 01:27 | 60.51575 | 67.81775 | 34869 ft | 511 kts | 48° |
| 2026-04-27 01:28 | 60.56095 | 67.92931 | 34867 ft | 511 kts | 48° |
| 2026-04-27 01:28 | 60.60608 | 68.04123 | 34854 ft | 511 kts | 49° |
| 2026-04-27 01:29 | 60.65109 | 68.15340 | 34844 ft | 511 kts | 49° |
| 2026-04-27 01:29 | 60.69594 | 68.26575 | 34837 ft | 511 kts | 49° |
| 2026-04-27 01:30 | 60.74076 | 68.37848 | 34828 ft | 510 kts | 49° |
| 2026-04-27 01:30 | 60.78538 | 68.49128 | 34823 ft | 510 kts | 49° |
| 2026-04-27 01:31 | 60.82998 | 68.60447 | 34810 ft | 510 kts | 49° |
| 2026-04-27 01:31 | 60.87417 | 68.71717 | 34806 ft | 510 kts | 49° |
| 2026-04-27 01:32 | 60.91849 | 68.83079 | 34802 ft | 509 kts | 49° |
| 2026-04-27 01:32 | 60.96274 | 68.94480 | 34803 ft | 509 kts | 50° |
| 2026-04-27 01:33 | 61.00685 | 69.05893 | 34803 ft | 509 kts | 50° |
| 2026-04-27 01:33 | 61.05364 | 69.16806 | 34796 ft | 506 kts | 40° |
| 2026-04-27 01:34 | 61.10606 | 69.26476 | 34801 ft | 505 kts | 39° |
| 2026-04-27 01:34 | 61.15870 | 69.36075 | 34794 ft | 505 kts | 39° |
| 2026-04-27 01:35 | 61.21061 | 69.45733 | 34790 ft | 505 kts | 40° |
| 2026-04-27 01:35 | 61.26265 | 69.55529 | 34783 ft | 505 kts | 40° |
| 2026-04-27 01:36 | 61.31466 | 69.65364 | 34780 ft | 505 kts | 40° |
| 2026-04-27 01:36 | 61.35783 | 69.73550 | 34780 ft | 505 kts | 40° |
| 2026-04-27 01:37 | 61.40979 | 69.83388 | 34777 ft | 505 kts | 40° |
| 2026-04-27 01:37 | 61.46187 | 69.93220 | 34783 ft | 505 kts | 40° |
| 2026-04-27 01:38 | 61.51394 | 70.03097 | 34779 ft | 505 kts | 40° |
| 2026-04-27 01:38 | 61.56592 | 70.13019 | 34779 ft | 505 kts | 41° |
| 2026-04-27 01:39 | 61.61777 | 70.22967 | 34778 ft | 505 kts | 41° |
| 2026-04-27 01:39 | 61.66963 | 70.32966 | 34783 ft | 505 kts | 41° |
| 2026-04-27 01:40 | 61.72134 | 70.42981 | 34782 ft | 505 kts | 41° |
| 2026-04-27 01:40 | 61.77302 | 70.53040 | 34778 ft | 505 kts | 41° |
| 2026-04-27 01:41 | 61.82457 | 70.63121 | 34769 ft | 505 kts | 41° |
| 2026-04-27 01:41 | 61.87573 | 70.73173 | 34776 ft | 505 kts | 41° |
| 2026-04-27 01:42 | 61.92719 | 70.83334 | 34779 ft | 505 kts | 42° |
| 2026-04-27 01:42 | 61.97857 | 70.93524 | 34771 ft | 505 kts | 42° |
| 2026-04-27 01:43 | 62.02987 | 71.03763 | 34772 ft | 505 kts | 42° |
| 2026-04-27 01:43 | 62.08098 | 71.14051 | 34768 ft | 506 kts | 42° |
| 2026-04-27 01:44 | 62.13219 | 71.24411 | 34905 ft | 508 kts | 42° |
| 2026-04-27 01:44 | 62.15785 | 71.29621 | 35122 ft | 507 kts | 43° |
| 2026-04-27 01:44 | 62.18341 | 71.34821 | 35254 ft | 508 kts | 43° |
| 2026-04-27 01:45 | 62.23485 | 71.45322 | 35397 ft | 512 kts | 43° |
| 2026-04-27 01:45 | 62.28649 | 71.55918 | 35599 ft | 514 kts | 43° |
| 2026-04-27 01:46 | 62.33824 | 71.66590 | 35773 ft | 516 kts | 43° |
| 2026-04-27 01:46 | 62.38980 | 71.77274 | 35923 ft | 518 kts | 43° |
| 2026-04-27 01:47 | 62.44179 | 71.88097 | 36049 ft | 520 kts | 43° |
| 2026-04-27 01:47 | 62.49391 | 71.98986 | 36196 ft | 521 kts | 43° |
| 2026-04-27 01:48 | 62.54608 | 72.09938 | 36305 ft | 523 kts | 43° |
| 2026-04-27 01:48 | 62.59833 | 72.20969 | 36408 ft | 524 kts | 44° |
| 2026-04-27 01:49 | 62.65054 | 72.32049 | 36506 ft | 525 kts | 44° |
| 2026-04-27 01:49 | 62.70276 | 72.43190 | 36632 ft | 526 kts | 44° |
| 2026-04-27 01:50 | 62.75496 | 72.54384 | 36671 ft | 528 kts | 44° |
| 2026-04-27 01:50 | 62.80732 | 72.65672 | 36686 ft | 530 kts | 44° |
| 2026-04-27 01:51 | 62.85980 | 72.77045 | 36678 ft | 532 kts | 44° |
| 2026-04-27 01:51 | 62.91236 | 72.88496 | 36671 ft | 533 kts | 44° |
| 2026-04-27 01:52 | 62.96487 | 73.00000 | 36669 ft | 533 kts | 45° |
| 2026-04-27 01:52 | 63.01720 | 73.11526 | 36658 ft | 532 kts | 45° |
| 2026-04-27 01:53 | 63.06915 | 73.23029 | 36661 ft | 531 kts | 45° |
| 2026-04-27 01:53 | 63.12116 | 73.34607 | 36657 ft | 530 kts | 45° |
| 2026-04-27 01:54 | 63.17290 | 73.46188 | 36658 ft | 529 kts | 45° |
| 2026-04-27 01:54 | 63.22443 | 73.57785 | 36653 ft | 528 kts | 45° |
| 2026-04-27 01:55 | 63.27581 | 73.69408 | 36652 ft | 527 kts | 45° |
| 2026-04-27 01:55 | 63.32704 | 73.81063 | 36651 ft | 526 kts | 46° |
| 2026-04-27 01:56 | 63.40367 | 73.98613 | 36647 ft | 527 kts | 46° |
| 2026-04-27 01:56 | 63.45464 | 74.10365 | 36649 ft | 527 kts | 46° |
| 2026-04-27 01:57 | 63.50555 | 74.22169 | 36646 ft | 527 kts | 46° |
| 2026-04-27 01:57 | 63.55601 | 74.33932 | 36646 ft | 528 kts | 46° |
| 2026-04-27 01:58 | 63.60685 | 74.45851 | 36641 ft | 528 kts | 46° |
| 2026-04-27 01:58 | 63.65765 | 74.57824 | 36640 ft | 528 kts | 46° |
| 2026-04-27 01:59 | 63.70828 | 74.69823 | 36635 ft | 529 kts | 47° |
| 2026-04-27 01:59 | 63.75892 | 74.81894 | 36631 ft | 529 kts | 47° |
| 2026-04-27 02:00 | 63.80944 | 74.94004 | 36626 ft | 529 kts | 47° |
| 2026-04-27 02:00 | 63.85989 | 75.06161 | 36620 ft | 530 kts | 47° |
| 2026-04-27 02:01 | 63.91031 | 75.18379 | 36620 ft | 530 kts | 47° |
| 2026-04-27 02:01 | 63.96050 | 75.30638 | 36611 ft | 530 kts | 47° |
| 2026-04-27 02:02 | 64.01037 | 75.42894 | 36606 ft | 530 kts | 47° |
| 2026-04-27 02:02 | 64.06040 | 75.55255 | 36600 ft | 530 kts | 48° |
| 2026-04-27 02:03 | 64.11033 | 75.67660 | 36589 ft | 530 kts | 48° |
| 2026-04-27 02:03 | 64.16016 | 75.80111 | 36590 ft | 530 kts | 48° |
| 2026-04-27 02:04 | 64.20994 | 75.92621 | 36595 ft | 530 kts | 48° |
| 2026-04-27 02:04 | 64.25960 | 76.05172 | 36589 ft | 531 kts | 48° |
| 2026-04-27 02:05 | 64.30917 | 76.17774 | 36575 ft | 531 kts | 49° |
| 2026-04-27 02:05 | 64.35833 | 76.30343 | 36573 ft | 531 kts | 49° |
| 2026-04-27 02:06 | 64.40769 | 76.43036 | 36570 ft | 531 kts | 49° |
| 2026-04-27 02:06 | 64.45695 | 76.55781 | 36562 ft | 530 kts | 49° |
| 2026-04-27 02:07 | 64.50605 | 76.68555 | 36561 ft | 530 kts | 49° |
| 2026-04-27 02:07 | 64.55502 | 76.81371 | 36553 ft | 530 kts | 49° |
| 2026-04-27 02:08 | 64.60383 | 76.94222 | 36547 ft | 530 kts | 49° |
| 2026-04-27 02:08 | 64.65252 | 77.07118 | 36543 ft | 530 kts | 50° |
| 2026-04-27 02:09 | 64.70109 | 77.20045 | 36539 ft | 530 kts | 50° |
| 2026-04-27 02:09 | 64.74972 | 77.33020 | 36531 ft | 529 kts | 50° |
| 2026-04-27 02:10 | 64.79790 | 77.45928 | 36525 ft | 529 kts | 50° |
| 2026-04-27 02:10 | 64.84631 | 77.58981 | 36523 ft | 529 kts | 50° |
| 2026-04-27 02:11 | 64.89312 | 77.72298 | 36503 ft | 528 kts | 58° |
| 2026-04-27 02:11 | 64.92730 | 77.87499 | 36513 ft | 524 kts | 70° |
| 2026-04-27 02:12 | 64.94800 | 78.03919 | 36509 ft | 521 kts | 78° |
| 2026-04-27 02:12 | 64.96593 | 78.20512 | 36495 ft | 522 kts | 78° |
| 2026-04-27 02:13 | 64.98444 | 78.37095 | 36490 ft | 522 kts | 77° |
| 2026-04-27 02:13 | 65.00321 | 78.53696 | 36485 ft | 523 kts | 77° |
| 2026-04-27 02:14 | 65.02161 | 78.70202 | 36475 ft | 523 kts | 78° |
| 2026-04-27 02:14 | 65.04028 | 78.86985 | 36462 ft | 523 kts | 78° |
| 2026-04-27 02:15 | 65.05868 | 79.03656 | 36465 ft | 523 kts | 78° |
| 2026-04-27 02:15 | 65.07675 | 79.20235 | 36452 ft | 523 kts | 78° |
| 2026-04-27 02:16 | 65.09478 | 79.36982 | 36453 ft | 523 kts | 78° |
| 2026-04-27 02:16 | 65.11257 | 79.53709 | 36439 ft | 523 kts | 79° |
| 2026-04-27 02:17 | 65.13017 | 79.70459 | 36432 ft | 523 kts | 79° |
| 2026-04-27 02:17 | 65.14759 | 79.87236 | 36433 ft | 522 kts | 79° |
| 2026-04-27 02:18 | 65.16481 | 80.04016 | 36421 ft | 522 kts | 79° |
| 2026-04-27 02:18 | 65.18184 | 80.20814 | 36407 ft | 522 kts | 80° |
| 2026-04-27 02:19 | 65.19864 | 80.37603 | 36400 ft | 521 kts | 80° |
| 2026-04-27 02:19 | 65.21527 | 80.54422 | 36391 ft | 521 kts | 80° |
| 2026-04-27 02:20 | 65.23168 | 80.71228 | 36384 ft | 520 kts | 81° |
| 2026-04-27 02:20 | 65.24780 | 80.87954 | 36375 ft | 520 kts | 81° |
| 2026-04-27 02:21 | 65.26382 | 81.04791 | 36369 ft | 519 kts | 81° |
| 2026-04-27 02:21 | 65.27962 | 81.21615 | 36362 ft | 519 kts | 81° |
| 2026-04-27 02:22 | 65.29524 | 81.38456 | 36352 ft | 519 kts | 81° |
| 2026-04-27 02:22 | 65.31067 | 81.55330 | 36338 ft | 519 kts | 82° |
| 2026-04-27 02:23 | 65.32589 | 81.72186 | 36334 ft | 518 kts | 82° |
| 2026-04-27 02:23 | 65.34094 | 81.89069 | 36326 ft | 518 kts | 82° |
| 2026-04-27 02:24 | 65.35570 | 82.05846 | 36318 ft | 518 kts | 82° |
| 2026-04-27 02:24 | 65.37062 | 82.22758 | 36303 ft | 518 kts | 82° |
| 2026-04-27 02:25 | 65.38548 | 82.39683 | 36297 ft | 518 kts | 82° |
| 2026-04-27 02:25 | 65.40009 | 82.56598 | 36289 ft | 518 kts | 82° |
| 2026-04-27 02:26 | 65.41451 | 82.73556 | 36285 ft | 518 kts | 83° |
| 2026-04-27 02:26 | 65.42633 | 82.87653 | 36289 ft | 518 kts | 83° |
| 2026-04-27 02:27 | 65.44039 | 83.04633 | 36262 ft | 518 kts | 83° |
| 2026-04-27 02:27 | 65.45426 | 83.21636 | 36271 ft | 518 kts | 83° |
| 2026-04-27 02:28 | 65.46796 | 83.38666 | 36266 ft | 518 kts | 83° |
| 2026-04-27 02:28 | 65.48151 | 83.55696 | 36253 ft | 518 kts | 83° |
| 2026-04-27 02:29 | 65.49603 | 83.72710 | 36242 ft | 519 kts | 82° |
| 2026-04-27 02:29 | 65.51091 | 83.89697 | 36245 ft | 518 kts | 82° |
| 2026-04-27 02:30 | 65.52550 | 84.06727 | 36246 ft | 518 kts | 83° |
| 2026-04-27 02:30 | 65.53976 | 84.23795 | 36245 ft | 520 kts | 83° |
| 2026-04-27 02:31 | 65.55382 | 84.40931 | 36236 ft | 520 kts | 83° |
| 2026-04-27 02:31 | 65.56768 | 84.58069 | 36237 ft | 520 kts | 83° |
| 2026-04-27 02:32 | 65.58135 | 84.75213 | 36238 ft | 519 kts | 83° |
| 2026-04-27 02:32 | 65.59472 | 84.92235 | 36242 ft | 519 kts | 83° |
| 2026-04-27 02:33 | 65.60798 | 85.09380 | 36237 ft | 518 kts | 84° |
| 2026-04-27 02:33 | 65.62103 | 85.26523 | 36252 ft | 518 kts | 84° |
| 2026-04-27 02:34 | 65.63399 | 85.43823 | 36251 ft | 519 kts | 84° |
| 2026-04-27 02:34 | 65.64660 | 85.60924 | 36243 ft | 519 kts | 84° |
| 2026-04-27 02:35 | 65.65908 | 85.78139 | 36258 ft | 519 kts | 84° |
| 2026-04-27 02:35 | 65.67139 | 85.95390 | 36248 ft | 519 kts | 84° |
| 2026-04-27 02:36 | 65.68349 | 86.12643 | 36255 ft | 519 kts | 84° |
| 2026-04-27 02:36 | 65.69540 | 86.29935 | 36264 ft | 519 kts | 85° |
| 2026-04-27 02:37 | 65.70714 | 86.47250 | 36265 ft | 520 kts | 85° |
| 2026-04-27 02:37 | 65.71867 | 86.64583 | 36263 ft | 520 kts | 85° |
| 2026-04-27 02:38 | 65.73004 | 86.81929 | 36284 ft | 520 kts | 85° |
| 2026-04-27 02:38 | 65.74132 | 86.99281 | 36284 ft | 520 kts | 85° |
| 2026-04-27 02:39 | 65.75255 | 87.16538 | 36281 ft | 520 kts | 85° |
| 2026-04-27 02:39 | 65.76366 | 87.33936 | 36288 ft | 520 kts | 85° |
| 2026-04-27 02:40 | 65.77453 | 87.51339 | 36292 ft | 520 kts | 85° |
| 2026-04-27 02:40 | 65.78521 | 87.68783 | 36292 ft | 520 kts | 85° |
| 2026-04-27 02:41 | 65.79572 | 87.86237 | 36293 ft | 520 kts | 85° |
| 2026-04-27 02:41 | 65.80853 | 88.03613 | 36299 ft | 522 kts | 81° |
| 2026-04-27 02:42 | 65.82473 | 88.20910 | 36293 ft | 523 kts | 80° |
| 2026-04-27 02:42 | 65.84102 | 88.38182 | 36306 ft | 522 kts | 81° |
| 2026-04-27 02:43 | 65.85675 | 88.55416 | 36313 ft | 522 kts | 81° |
| 2026-04-27 02:43 | 65.87214 | 88.72749 | 36320 ft | 522 kts | 81° |
| 2026-04-27 02:44 | 65.88733 | 88.90140 | 36333 ft | 522 kts | 81° |
| 2026-04-27 02:44 | 65.90233 | 89.07533 | 36345 ft | 522 kts | 81° |
| 2026-04-27 02:45 | 65.91709 | 89.24901 | 36361 ft | 522 kts | 81° |
| 2026-04-27 02:45 | 65.93171 | 89.42330 | 36362 ft | 522 kts | 82° |
| 2026-04-27 02:46 | 65.94611 | 89.59755 | 36375 ft | 521 kts | 82° |
| 2026-04-27 02:46 | 65.96028 | 89.77156 | 36392 ft | 521 kts | 82° |
| 2026-04-27 02:47 | 65.97427 | 89.94606 | 36386 ft | 521 kts | 82° |
| 2026-04-27 02:47 | 65.98804 | 90.12045 | 36406 ft | 520 kts | 82° |
| 2026-04-27 02:48 | 66.00161 | 90.29507 | 36403 ft | 520 kts | 82° |
| 2026-04-27 02:48 | 66.01491 | 90.46882 | 36412 ft | 520 kts | 82° |
| 2026-04-27 02:49 | 66.02808 | 90.64370 | 36420 ft | 520 kts | 82° |
| 2026-04-27 02:49 | 66.04106 | 90.81881 | 36431 ft | 520 kts | 82° |
| 2026-04-27 02:50 | 66.05383 | 90.99401 | 36438 ft | 521 kts | 82° |
| 2026-04-27 02:50 | 66.06643 | 91.16981 | 36453 ft | 521 kts | 82° |
| 2026-04-27 02:51 | 66.07885 | 91.34598 | 36464 ft | 522 kts | 82° |
| 2026-04-27 02:51 | 66.09108 | 91.52238 | 36467 ft | 522 kts | 83° |
| 2026-04-27 02:52 | 66.10311 | 91.69913 | 36480 ft | 523 kts | 83° |
| 2026-04-27 02:52 | 66.11494 | 91.87613 | 36492 ft | 523 kts | 83° |
| 2026-04-27 02:53 | 66.12659 | 92.05346 | 36501 ft | 523 kts | 83° |
| 2026-04-27 02:53 | 66.13802 | 92.23085 | 36518 ft | 523 kts | 83° |
| 2026-04-27 02:54 | 66.14919 | 92.40732 | 36520 ft | 523 kts | 83° |
| 2026-04-27 02:54 | 66.16021 | 92.58503 | 36538 ft | 523 kts | 83° |
| 2026-04-27 02:55 | 66.17103 | 92.76274 | 36534 ft | 523 kts | 83° |
| 2026-04-27 02:55 | 66.18164 | 92.94049 | 36540 ft | 522 kts | 83° |
| 2026-04-27 02:56 | 66.19202 | 93.11812 | 36553 ft | 522 kts | 83° |
| 2026-04-27 02:56 | 66.20221 | 93.29597 | 36564 ft | 521 kts | 83° |
| 2026-04-27 02:57 | 66.21218 | 93.47385 | 36565 ft | 521 kts | 84° |
| 2026-04-27 02:57 | 66.22194 | 93.65154 | 36585 ft | 520 kts | 84° |
| 2026-04-27 02:58 | 66.23148 | 93.82924 | 36595 ft | 520 kts | 84° |
| 2026-04-27 02:58 | 66.24075 | 94.00574 | 36599 ft | 520 kts | 84° |
| 2026-04-27 02:59 | 66.24995 | 94.18481 | 36599 ft | 520 kts | 84° |
| 2026-04-27 02:59 | 66.25881 | 94.36150 | 36614 ft | 520 kts | 84° |
| 2026-04-27 03:00 | 66.26756 | 94.54001 | 36614 ft | 520 kts | 84° |
| 2026-04-27 03:00 | 66.27610 | 94.71867 | 36622 ft | 521 kts | 84° |
| 2026-04-27 03:01 | 66.28444 | 94.89732 | 36630 ft | 521 kts | 84° |
| 2026-04-27 03:01 | 66.29261 | 95.07632 | 36634 ft | 522 kts | 84° |
| 2026-04-27 03:02 | 66.30156 | 95.25522 | 36646 ft | 522 kts | 83° |
| 2026-04-27 03:02 | 66.31194 | 95.43403 | 36644 ft | 523 kts | 82° |
| 2026-04-27 03:03 | 66.32713 | 95.70191 | 36657 ft | 523 kts | 83° |
| 2026-04-27 03:04 | 66.33678 | 95.88237 | 36668 ft | 523 kts | 83° |
| 2026-04-27 03:04 | 66.34603 | 96.06079 | 36680 ft | 523 kts | 83° |
| 2026-04-27 03:05 | 66.35515 | 96.24064 | 36679 ft | 523 kts | 83° |
| 2026-04-27 03:05 | 66.36406 | 96.42033 | 36671 ft | 523 kts | 83° |
| 2026-04-27 03:06 | 66.37279 | 96.60029 | 36687 ft | 523 kts | 83° |
| 2026-04-27 03:06 | 66.38130 | 96.78044 | 36696 ft | 523 kts | 84° |
| 2026-04-27 03:07 | 66.38961 | 96.96057 | 36701 ft | 523 kts | 84° |
| 2026-04-27 03:07 | 66.39771 | 97.14101 | 36716 ft | 523 kts | 84° |
| 2026-04-27 03:08 | 66.40562 | 97.32193 | 36725 ft | 524 kts | 84° |
| 2026-04-27 03:08 | 66.41327 | 97.50180 | 36723 ft | 524 kts | 84° |
| 2026-04-27 03:09 | 66.42077 | 97.68309 | 36726 ft | 525 kts | 84° |
| 2026-04-27 03:09 | 66.42804 | 97.86404 | 36743 ft | 525 kts | 84° |
| 2026-04-27 03:10 | 66.43515 | 98.04635 | 36743 ft | 526 kts | 84° |
| 2026-04-27 03:10 | 66.44202 | 98.22812 | 36755 ft | 526 kts | 84° |
| 2026-04-27 03:11 | 66.44759 | 98.37981 | 36753 ft | 526 kts | 84° |
| 2026-04-27 03:11 | 66.45517 | 98.59307 | 36762 ft | 527 kts | 84° |
| 2026-04-27 03:12 | 66.46142 | 98.77570 | 36766 ft | 527 kts | 84° |
| 2026-04-27 03:12 | 66.46747 | 98.95847 | 36777 ft | 527 kts | 84° |
| 2026-04-27 03:13 | 66.47330 | 99.14142 | 36766 ft | 528 kts | 84° |
| 2026-04-27 03:13 | 66.47756 | 99.27971 | 36789 ft | 528 kts | 84° |
| 2026-04-27 03:14 | 66.48304 | 99.46336 | 36780 ft | 529 kts | 84° |
| 2026-04-27 03:14 | 66.48829 | 99.64708 | 36788 ft | 529 kts | 84° |
| 2026-04-27 03:15 | 66.49250 | 99.79979 | 36793 ft | 528 kts | 84° |
| 2026-04-27 03:15 | 66.49737 | 99.98379 | 36787 ft | 529 kts | 85° |
| 2026-04-27 03:16 | 66.50201 | 100.16766 | 36799 ft | 529 kts | 85° |
| 2026-04-27 03:16 | 66.50645 | 100.35189 | 36785 ft | 529 kts | 85° |
| 2026-04-27 03:17 | 66.51065 | 100.53559 | 36798 ft | 528 kts | 85° |
| 2026-04-27 03:17 | 66.51465 | 100.71935 | 36799 ft | 528 kts | 85° |
| 2026-04-27 03:18 | 66.51842 | 100.90323 | 36801 ft | 528 kts | 85° |
| 2026-04-27 03:18 | 66.52196 | 101.08601 | 36799 ft | 527 kts | 85° |
| 2026-04-27 03:19 | 66.52529 | 101.26936 | 36810 ft | 526 kts | 85° |
| 2026-04-27 03:19 | 66.52842 | 101.45281 | 36818 ft | 525 kts | 85° |
| 2026-04-27 03:20 | 66.53133 | 101.63605 | 36817 ft | 525 kts | 85° |
| 2026-04-27 03:20 | 66.53401 | 101.81895 | 36819 ft | 525 kts | 85° |
| 2026-04-27 03:21 | 66.53648 | 102.00196 | 36822 ft | 524 kts | 85° |
| 2026-04-27 03:21 | 66.53873 | 102.18463 | 36828 ft | 524 kts | 85° |
| 2026-04-27 03:22 | 66.54078 | 102.36735 | 36829 ft | 523 kts | 85° |
| 2026-04-27 03:22 | 66.54260 | 102.54986 | 36839 ft | 523 kts | 85° |
| 2026-04-27 03:23 | 66.54422 | 102.73245 | 36839 ft | 522 kts | 85° |
| 2026-04-27 03:23 | 66.54562 | 102.91462 | 36845 ft | 522 kts | 85° |
| 2026-04-27 03:24 | 66.54680 | 103.09533 | 36858 ft | 521 kts | 86° |
| 2026-04-27 03:24 | 66.54778 | 103.27764 | 36856 ft | 521 kts | 86° |
| 2026-04-27 03:25 | 66.54857 | 103.45934 | 36861 ft | 520 kts | 86° |
| 2026-04-27 03:25 | 66.54920 | 103.64106 | 36867 ft | 520 kts | 86° |
| 2026-04-27 03:26 | 66.55041 | 103.82248 | 36868 ft | 520 kts | 85° |
| 2026-04-27 03:26 | 66.55172 | 104.00380 | 36877 ft | 519 kts | 85° |
| 2026-04-27 03:27 | 66.55274 | 104.18390 | 36876 ft | 519 kts | 85° |
| 2026-04-27 03:27 | 66.55348 | 104.36516 | 36880 ft | 519 kts | 86° |
| 2026-04-27 03:28 | 66.55397 | 104.54633 | 36904 ft | 519 kts | 86° |
| 2026-04-27 03:28 | 66.55426 | 104.72775 | 36886 ft | 520 kts | 86° |
| 2026-04-27 03:29 | 66.55434 | 104.90924 | 36904 ft | 518 kts | 86° |
| 2026-04-27 03:29 | 66.55422 | 105.09030 | 36908 ft | 518 kts | 86° |
| 2026-04-27 03:30 | 66.55389 | 105.27122 | 36917 ft | 519 kts | 86° |
| 2026-04-27 03:30 | 66.55335 | 105.45244 | 36920 ft | 519 kts | 86° |
| 2026-04-27 03:31 | 66.55260 | 105.63367 | 36927 ft | 519 kts | 86° |
| 2026-04-27 03:31 | 66.55165 | 105.81495 | 36929 ft | 519 kts | 86° |
| 2026-04-27 03:32 | 66.55047 | 105.99580 | 36949 ft | 518 kts | 87° |
| 2026-04-27 03:32 | 66.54910 | 106.17676 | 36935 ft | 518 kts | 87° |
| 2026-04-27 03:33 | 66.54752 | 106.35728 | 36946 ft | 517 kts | 87° |
| 2026-04-27 03:33 | 66.54574 | 106.53777 | 36970 ft | 517 kts | 87° |
| 2026-04-27 03:34 | 66.54375 | 106.71810 | 36968 ft | 517 kts | 87° |
| 2026-04-27 03:34 | 66.54161 | 106.89745 | 36974 ft | 518 kts | 87° |
| 2026-04-27 03:35 | 66.53942 | 107.07823 | 36984 ft | 520 kts | 87° |
| 2026-04-27 03:35 | 66.53743 | 107.25964 | 36977 ft | 519 kts | 87° |
| 2026-04-27 03:36 | 66.53527 | 107.44060 | 36974 ft | 518 kts | 87° |
| 2026-04-27 03:36 | 66.53285 | 107.62124 | 36983 ft | 518 kts | 87° |
| 2026-04-27 03:37 | 66.53019 | 107.80175 | 36983 ft | 517 kts | 88° |
| 2026-04-27 03:37 | 66.52733 | 107.98179 | 36992 ft | 516 kts | 88° |
| 2026-04-27 03:38 | 66.52427 | 108.16161 | 36990 ft | 517 kts | 88° |
| 2026-04-27 03:38 | 66.52101 | 108.34158 | 36996 ft | 516 kts | 88° |
| 2026-04-27 03:39 | 66.51754 | 108.52149 | 36999 ft | 517 kts | 88° |
| 2026-04-27 03:39 | 66.51388 | 108.70031 | 36995 ft | 517 kts | 88° |
| 2026-04-27 03:40 | 66.51000 | 108.88027 | 37002 ft | 518 kts | 88° |
| 2026-04-27 03:40 | 66.50589 | 109.06062 | 36978 ft | 519 kts | 88° |
| 2026-04-27 03:41 | 66.50158 | 109.24097 | 36990 ft | 518 kts | 88° |
| 2026-04-27 03:41 | 66.49706 | 109.42100 | 36989 ft | 518 kts | 89° |
| 2026-04-27 03:42 | 66.49234 | 109.60100 | 36985 ft | 517 kts | 89° |
| 2026-04-27 03:42 | 66.48744 | 109.78066 | 36986 ft | 517 kts | 89° |
| 2026-04-27 03:43 | 66.48234 | 109.96032 | 36985 ft | 517 kts | 89° |
| 2026-04-27 03:43 | 66.47696 | 110.13957 | 36981 ft | 516 kts | 89° |
| 2026-04-27 03:44 | 66.47137 | 110.31868 | 36981 ft | 517 kts | 89° |
| 2026-04-27 03:44 | 66.46560 | 110.49794 | 36972 ft | 517 kts | 89° |
| 2026-04-27 03:45 | 66.45962 | 110.67746 | 36970 ft | 517 kts | 89° |
| 2026-04-27 03:45 | 66.45345 | 110.85640 | 36966 ft | 517 kts | 90° |
| 2026-04-27 03:46 | 66.44707 | 111.03546 | 36973 ft | 517 kts | 90° |
| 2026-04-27 03:46 | 66.44049 | 111.21445 | 36964 ft | 517 kts | 90° |
| 2026-04-27 03:47 | 66.43373 | 111.39235 | 36977 ft | 517 kts | 90° |
| 2026-04-27 03:47 | 66.42676 | 111.57083 | 36987 ft | 516 kts | 90° |
| 2026-04-27 03:48 | 66.41959 | 111.74932 | 36993 ft | 516 kts | 90° |
| 2026-04-27 03:48 | 66.41226 | 111.92759 | 36997 ft | 515 kts | 89° |
| 2026-04-27 03:49 | 66.41168 | 112.10471 | 36992 ft | 506 kts | 78° |
| 2026-04-27 03:49 | 66.42101 | 112.27762 | 36997 ft | 502 kts | 75° |
| 2026-04-27 03:50 | 66.43107 | 112.45053 | 37001 ft | 502 kts | 76° |
| 2026-04-27 03:50 | 66.44062 | 112.62346 | 36998 ft | 502 kts | 76° |
| 2026-04-27 03:51 | 66.44968 | 112.79558 | 37006 ft | 502 kts | 77° |
| 2026-04-27 03:51 | 66.45854 | 112.96901 | 37014 ft | 502 kts | 77° |
| 2026-04-27 03:52 | 66.46722 | 113.14244 | 37015 ft | 503 kts | 77° |
| 2026-04-27 03:52 | 66.47574 | 113.31622 | 37004 ft | 502 kts | 77° |
| 2026-04-27 03:53 | 66.48405 | 113.48982 | 37032 ft | 502 kts | 77° |
| 2026-04-27 03:53 | 66.49217 | 113.66350 | 37026 ft | 502 kts | 78° |
| 2026-04-27 03:54 | 66.50009 | 113.83722 | 37033 ft | 502 kts | 78° |
| 2026-04-27 03:54 | 66.50782 | 114.01093 | 37035 ft | 502 kts | 78° |
| 2026-04-27 03:55 | 66.51536 | 114.18500 | 37042 ft | 502 kts | 78° |
| 2026-04-27 03:55 | 66.52271 | 114.35911 | 37050 ft | 502 kts | 79° |
| 2026-04-27 03:56 | 66.52986 | 114.53313 | 37051 ft | 502 kts | 79° |
| 2026-04-27 03:56 | 66.53682 | 114.70747 | 37059 ft | 502 kts | 79° |
| 2026-04-27 03:57 | 66.54358 | 114.88074 | 37064 ft | 502 kts | 79° |
| 2026-04-27 03:57 | 66.55084 | 115.05477 | 37062 ft | 500 kts | 77° |
| 2026-04-27 03:58 | 66.56075 | 115.22734 | 37068 ft | 499 kts | 76° |
| 2026-04-27 03:58 | 66.57112 | 115.40001 | 37066 ft | 499 kts | 77° |
| 2026-04-27 03:59 | 66.58110 | 115.57278 | 37067 ft | 500 kts | 77° |
| 2026-04-27 03:59 | 66.59069 | 115.74592 | 37070 ft | 500 kts | 77° |
| 2026-04-27 04:00 | 66.60003 | 115.91938 | 37071 ft | 500 kts | 78° |
| 2026-04-27 04:00 | 66.60919 | 116.09290 | 37071 ft | 500 kts | 78° |
| 2026-04-27 04:01 | 66.61817 | 116.26654 | 37073 ft | 500 kts | 78° |
| 2026-04-27 04:01 | 66.62695 | 116.44014 | 37070 ft | 500 kts | 78° |
| 2026-04-27 04:02 | 66.63556 | 116.61409 | 37075 ft | 500 kts | 78° |
| 2026-04-27 04:02 | 66.64391 | 116.78697 | 37073 ft | 500 kts | 78° |
| 2026-04-27 04:03 | 66.65213 | 116.96119 | 37077 ft | 500 kts | 79° |
| 2026-04-27 04:03 | 66.66018 | 117.13543 | 37084 ft | 500 kts | 79° |
| 2026-04-27 04:04 | 66.66670 | 117.28051 | 37077 ft | 501 kts | 79° |
| 2026-04-27 04:04 | 66.67436 | 117.45523 | 37085 ft | 501 kts | 79° |
| 2026-04-27 04:05 | 66.68184 | 117.62988 | 37079 ft | 501 kts | 80° |
| 2026-04-27 04:05 | 66.68914 | 117.80493 | 37079 ft | 501 kts | 80° |
| 2026-04-27 04:06 | 66.69624 | 117.97999 | 37071 ft | 501 kts | 80° |
| 2026-04-27 04:06 | 66.70314 | 118.15510 | 37067 ft | 501 kts | 81° |
| 2026-04-27 04:07 | 66.71313 | 118.41768 | 37065 ft | 501 kts | 81° |
| 2026-04-27 04:07 | 66.71954 | 118.59296 | 37057 ft | 500 kts | 81° |
| 2026-04-27 04:08 | 66.72575 | 118.76812 | 37065 ft | 500 kts | 81° |
| 2026-04-27 04:08 | 66.73178 | 118.94340 | 37064 ft | 500 kts | 82° |
| 2026-04-27 04:09 | 66.73760 | 119.11873 | 37059 ft | 500 kts | 82° |
| 2026-04-27 04:09 | 66.74323 | 119.29399 | 37056 ft | 500 kts | 82° |
| 2026-04-27 04:10 | 66.74867 | 119.46845 | 37060 ft | 500 kts | 82° |
| 2026-04-27 04:10 | 66.75325 | 119.64401 | 37055 ft | 500 kts | 84° |
| 2026-04-27 04:11 | 66.75647 | 119.82011 | 37056 ft | 500 kts | 84° |
| 2026-04-27 04:11 | 66.75944 | 119.99601 | 37052 ft | 500 kts | 84° |
| 2026-04-27 04:12 | 66.76242 | 120.17192 | 37045 ft | 500 kts | 84° |
| 2026-04-27 04:12 | 66.76529 | 120.34769 | 37059 ft | 499 kts | 85° |
| 2026-04-27 04:13 | 66.76798 | 120.52347 | 37049 ft | 499 kts | 85° |
| 2026-04-27 04:13 | 66.77046 | 120.69928 | 37052 ft | 499 kts | 85° |
| 2026-04-27 04:14 | 66.77273 | 120.87511 | 37044 ft | 499 kts | 85° |
| 2026-04-27 04:14 | 66.77481 | 121.05086 | 37048 ft | 499 kts | 85° |
| 2026-04-27 04:15 | 66.77670 | 121.22667 | 37041 ft | 499 kts | 86° |
| 2026-04-27 04:15 | 66.77839 | 121.40254 | 37043 ft | 499 kts | 86° |
| 2026-04-27 04:16 | 66.77988 | 121.57724 | 37043 ft | 499 kts | 86° |
| 2026-04-27 04:16 | 66.78117 | 121.75314 | 37039 ft | 499 kts | 86° |
| 2026-04-27 04:17 | 66.78228 | 121.92911 | 37043 ft | 499 kts | 87° |
| 2026-04-27 04:17 | 66.78319 | 122.10504 | 37041 ft | 499 kts | 87° |
| 2026-04-27 04:18 | 66.78390 | 122.28072 | 37046 ft | 499 kts | 87° |
| 2026-04-27 04:18 | 66.78443 | 122.45649 | 37045 ft | 499 kts | 88° |
| 2026-04-27 04:19 | 66.78474 | 122.63225 | 37052 ft | 499 kts | 88° |
| 2026-04-27 04:19 | 66.78487 | 122.80802 | 37045 ft | 498 kts | 88° |
| 2026-04-27 04:20 | 66.78481 | 122.98386 | 37049 ft | 498 kts | 88° |
| 2026-04-27 04:20 | 66.78457 | 123.15922 | 37054 ft | 498 kts | 88° |
| 2026-04-27 04:21 | 66.78382 | 123.33464 | 37059 ft | 498 kts | 91° |
| 2026-04-27 04:21 | 66.77449 | 123.50759 | 37062 ft | 499 kts | 100° |
| 2026-04-27 04:22 | 66.76051 | 123.68083 | 37060 ft | 499 kts | 100° |
| 2026-04-27 04:22 | 66.74660 | 123.85154 | 37055 ft | 499 kts | 100° |
| 2026-04-27 04:23 | 66.73277 | 124.02350 | 37057 ft | 498 kts | 100° |
| 2026-04-27 04:23 | 66.71894 | 124.19513 | 37054 ft | 498 kts | 100° |
| 2026-04-27 04:24 | 66.70493 | 124.36675 | 37044 ft | 498 kts | 101° |
| 2026-04-27 04:24 | 66.69072 | 124.53803 | 37049 ft | 498 kts | 101° |
| 2026-04-27 04:25 | 66.67633 | 124.70885 | 37052 ft | 498 kts | 101° |
| 2026-04-27 04:25 | 66.66177 | 124.87940 | 37036 ft | 497 kts | 101° |
| 2026-04-27 04:26 | 66.64703 | 125.04970 | 37046 ft | 497 kts | 102° |
| 2026-04-27 04:26 | 66.63210 | 125.21967 | 37045 ft | 496 kts | 102° |
| 2026-04-27 04:27 | 66.61713 | 125.38807 | 37038 ft | 496 kts | 102° |
| 2026-04-27 04:27 | 66.60189 | 125.55712 | 37038 ft | 496 kts | 102° |
| 2026-04-27 04:28 | 66.58645 | 125.72613 | 37043 ft | 496 kts | 102° |
| 2026-04-27 04:28 | 66.57085 | 125.89481 | 37052 ft | 495 kts | 102° |
| 2026-04-27 04:29 | 66.55508 | 126.06316 | 37045 ft | 495 kts | 103° |
| 2026-04-27 04:29 | 66.53913 | 126.23127 | 37046 ft | 495 kts | 103° |
| 2026-04-27 04:30 | 66.52303 | 126.39888 | 37049 ft | 494 kts | 103° |
| 2026-04-27 04:30 | 66.50675 | 126.56624 | 37054 ft | 494 kts | 103° |
| 2026-04-27 04:31 | 66.49029 | 126.73341 | 37056 ft | 494 kts | 103° |
| 2026-04-27 04:31 | 66.47367 | 126.90019 | 37063 ft | 494 kts | 104° |
| 2026-04-27 04:32 | 66.45687 | 127.06670 | 37057 ft | 493 kts | 104° |
| 2026-04-27 04:32 | 66.43989 | 127.23307 | 37055 ft | 493 kts | 104° |
| 2026-04-27 04:33 | 66.42284 | 127.39813 | 37060 ft | 493 kts | 104° |
| 2026-04-27 04:33 | 66.40543 | 127.56488 | 37073 ft | 493 kts | 104° |
| 2026-04-27 04:34 | 66.38806 | 127.72926 | 37067 ft | 494 kts | 104° |
| 2026-04-27 04:34 | 66.37039 | 127.89485 | 37080 ft | 494 kts | 104° |
| 2026-04-27 04:35 | 66.35246 | 128.06063 | 37079 ft | 495 kts | 104° |
| 2026-04-27 04:35 | 66.33437 | 128.22604 | 37090 ft | 495 kts | 104° |
| 2026-04-27 04:36 | 66.31607 | 128.39152 | 37083 ft | 496 kts | 104° |
| 2026-04-27 04:36 | 66.29762 | 128.55670 | 37087 ft | 496 kts | 104° |
| 2026-04-27 04:37 | 66.27899 | 128.72170 | 37081 ft | 496 kts | 105° |
| 2026-04-27 04:37 | 66.26022 | 128.88631 | 37089 ft | 495 kts | 105° |
| 2026-04-27 04:38 | 66.24021 | 129.04980 | 37080 ft | 495 kts | 109° |
| 2026-04-27 04:38 | 66.21588 | 129.20820 | 37083 ft | 494 kts | 110° |
| 2026-04-27 04:39 | 66.19125 | 129.36711 | 37085 ft | 493 kts | 110° |
| 2026-04-27 04:39 | 66.16684 | 129.52576 | 37090 ft | 493 kts | 110° |
| 2026-04-27 04:40 | 66.14235 | 129.68400 | 37091 ft | 493 kts | 110° |
| 2026-04-27 04:40 | 66.11771 | 129.84202 | 37099 ft | 492 kts | 110° |
| 2026-04-27 04:41 | 66.09313 | 129.99842 | 37096 ft | 492 kts | 110° |
| 2026-04-27 04:41 | 66.06817 | 130.15586 | 37096 ft | 492 kts | 111° |
| 2026-04-27 04:42 | 66.04311 | 130.31258 | 37093 ft | 492 kts | 111° |
| 2026-04-27 04:42 | 66.01786 | 130.46923 | 37092 ft | 492 kts | 111° |
| 2026-04-27 04:43 | 65.99250 | 130.62526 | 37093 ft | 492 kts | 111° |
| 2026-04-27 04:43 | 65.96695 | 130.78112 | 37089 ft | 492 kts | 111° |
| 2026-04-27 04:44 | 65.94127 | 130.93657 | 37087 ft | 492 kts | 111° |
| 2026-04-27 04:44 | 65.91543 | 131.09171 | 37078 ft | 492 kts | 112° |
| 2026-04-27 04:45 | 65.88946 | 131.24637 | 37072 ft | 491 kts | 112° |
| 2026-04-27 04:45 | 65.86334 | 131.40075 | 37071 ft | 491 kts | 112° |
| 2026-04-27 04:46 | 65.83723 | 131.55380 | 37072 ft | 491 kts | 112° |
| 2026-04-27 04:46 | 65.81068 | 131.70826 | 37069 ft | 490 kts | 112° |
| 2026-04-27 04:47 | 65.78414 | 131.86146 | 37068 ft | 490 kts | 112° |
| 2026-04-27 04:47 | 65.75767 | 132.01322 | 37068 ft | 490 kts | 113° |
| 2026-04-27 04:48 | 65.73084 | 132.16554 | 37067 ft | 490 kts | 113° |
| 2026-04-27 04:48 | 65.70389 | 132.31742 | 37063 ft | 490 kts | 113° |
| 2026-04-27 04:49 | 65.67678 | 132.46919 | 37064 ft | 490 kts | 113° |
| 2026-04-27 04:49 | 65.64955 | 132.62050 | 37060 ft | 490 kts | 113° |
| 2026-04-27 04:50 | 65.62217 | 132.77155 | 37069 ft | 490 kts | 114° |
| 2026-04-27 04:50 | 65.59465 | 132.92236 | 37060 ft | 490 kts | 114° |
| 2026-04-27 04:51 | 65.56697 | 133.07273 | 37058 ft | 490 kts | 114° |
| 2026-04-27 04:51 | 65.54384 | 133.19751 | 37065 ft | 490 kts | 114° |
| 2026-04-27 04:52 | 65.51590 | 133.34734 | 37061 ft | 490 kts | 114° |
| 2026-04-27 04:52 | 65.48776 | 133.49689 | 37054 ft | 490 kts | 114° |
| 2026-04-27 04:53 | 65.45945 | 133.64637 | 37059 ft | 490 kts | 114° |
| 2026-04-27 04:53 | 65.43105 | 133.79524 | 37057 ft | 490 kts | 114° |
| 2026-04-27 04:54 | 65.40248 | 133.94388 | 37058 ft | 490 kts | 115° |
| 2026-04-27 04:54 | 65.37384 | 134.09192 | 37156 ft | 490 kts | 115° |
| 2026-04-27 04:55 | 65.35940 | 134.16610 | 37290 ft | 491 kts | 115° |
| 2026-04-27 04:55 | 65.34488 | 134.24054 | 37450 ft | 492 kts | 115° |
| 2026-04-27 04:55 | 65.33029 | 134.31498 | 37600 ft | 493 kts | 115° |
| 2026-04-27 04:55 | 65.31567 | 134.38935 | 37697 ft | 495 kts | 115° |
| 2026-04-27 04:56 | 65.30092 | 134.46403 | 37811 ft | 496 kts | 115° |
| 2026-04-27 04:56 | 65.28615 | 134.53858 | 37961 ft | 497 kts | 115° |
| 2026-04-27 04:56 | 65.25636 | 134.68820 | 38123 ft | 500 kts | 115° |
| 2026-04-27 04:57 | 65.24130 | 134.76318 | 38247 ft | 501 kts | 115° |
| 2026-04-27 04:57 | 65.22616 | 134.83799 | 38350 ft | 502 kts | 115° |
| 2026-04-27 04:57 | 65.19563 | 134.98804 | 38487 ft | 504 kts | 115° |
| 2026-04-27 04:58 | 65.18046 | 135.06230 | 38600 ft | 505 kts | 115° |
| 2026-04-27 04:58 | 65.16507 | 135.13743 | 38667 ft | 506 kts | 115° |
| 2026-04-27 04:58 | 65.13412 | 135.28791 | 38778 ft | 507 kts | 115° |
| 2026-04-27 04:59 | 65.10293 | 135.43828 | 38905 ft | 508 kts | 116° |
| 2026-04-27 04:59 | 65.07157 | 135.58865 | 39008 ft | 509 kts | 116° |
| 2026-04-27 05:00 | 65.04009 | 135.73877 | 39049 ft | 509 kts | 116° |
| 2026-04-27 05:00 | 65.00842 | 135.88884 | 39056 ft | 510 kts | 116° |
| 2026-04-27 05:01 | 64.97657 | 136.03861 | 39052 ft | 510 kts | 116° |
| 2026-04-27 05:01 | 64.94452 | 136.18825 | 39053 ft | 511 kts | 116° |
| 2026-04-27 05:02 | 64.91229 | 136.33768 | 39050 ft | 512 kts | 116° |
| 2026-04-27 05:03 | 64.86360 | 136.56146 | 39050 ft | 512 kts | 116° |
| 2026-04-27 05:03 | 64.83092 | 136.71039 | 39038 ft | 512 kts | 116° |
| 2026-04-27 05:04 | 64.79813 | 136.85877 | 39044 ft | 512 kts | 117° |
| 2026-04-27 05:04 | 64.76522 | 137.00676 | 39042 ft | 511 kts | 117° |
| 2026-04-27 05:05 | 64.73231 | 137.15434 | 39034 ft | 511 kts | 116° |
| 2026-04-27 05:05 | 64.70093 | 137.30211 | 39032 ft | 510 kts | 115° |
| 2026-04-27 05:06 | 64.66970 | 137.45091 | 39019 ft | 510 kts | 115° |
| 2026-04-27 05:06 | 64.63820 | 137.59882 | 39018 ft | 509 kts | 116° |
| 2026-04-27 05:07 | 64.60640 | 137.74628 | 39026 ft | 509 kts | 116° |
| 2026-04-27 05:07 | 64.57447 | 137.89328 | 39023 ft | 508 kts | 116° |
| 2026-04-27 05:08 | 64.54245 | 138.03977 | 39020 ft | 508 kts | 116° |
| 2026-04-27 05:08 | 64.51030 | 138.18603 | 39025 ft | 508 kts | 116° |
| 2026-04-27 05:09 | 64.47801 | 138.33185 | 39023 ft | 508 kts | 116° |
| 2026-04-27 05:09 | 64.44562 | 138.47741 | 39025 ft | 508 kts | 116° |
| 2026-04-27 05:10 | 64.41309 | 138.62275 | 39025 ft | 508 kts | 116° |
| 2026-04-27 05:10 | 64.38047 | 138.76759 | 39029 ft | 508 kts | 116° |
| 2026-04-27 05:11 | 64.34766 | 138.91222 | 39026 ft | 508 kts | 116° |
| 2026-04-27 05:11 | 64.31469 | 139.05657 | 39036 ft | 508 kts | 117° |
| 2026-04-27 05:12 | 64.28186 | 139.19933 | 39039 ft | 508 kts | 117° |
| 2026-04-27 05:12 | 64.24857 | 139.34317 | 39043 ft | 508 kts | 117° |
| 2026-04-27 05:13 | 64.21517 | 139.48655 | 39047 ft | 508 kts | 117° |
| 2026-04-27 05:13 | 64.18164 | 139.62950 | 39053 ft | 509 kts | 117° |
| 2026-04-27 05:14 | 64.14796 | 139.77220 | 39055 ft | 509 kts | 117° |
| 2026-04-27 05:14 | 64.11414 | 139.91450 | 39060 ft | 509 kts | 117° |
| 2026-04-27 05:15 | 64.08019 | 140.05644 | 39067 ft | 508 kts | 117° |
| 2026-04-27 05:15 | 64.04611 | 140.19800 | 39069 ft | 508 kts | 118° |
| 2026-04-27 05:16 | 64.01192 | 140.33917 | 39064 ft | 508 kts | 118° |
| 2026-04-27 05:16 | 63.97758 | 140.48000 | 39065 ft | 508 kts | 118° |
| 2026-04-27 05:17 | 63.94314 | 140.62048 | 39067 ft | 508 kts | 118° |
| 2026-04-27 05:17 | 63.90848 | 140.76045 | 39046 ft | 508 kts | 118° |
| 2026-04-27 05:18 | 63.87367 | 140.89870 | 39046 ft | 508 kts | 118° |
| 2026-04-27 05:18 | 63.83858 | 141.03756 | 39042 ft | 507 kts | 118° |
| 2026-04-27 05:19 | 63.80342 | 141.17612 | 39044 ft | 507 kts | 118° |
| 2026-04-27 05:19 | 63.76828 | 141.31448 | 39056 ft | 507 kts | 119° |
| 2026-04-27 05:20 | 63.73303 | 141.45269 | 39043 ft | 507 kts | 119° |
| 2026-04-27 05:20 | 63.69770 | 141.59026 | 39046 ft | 507 kts | 119° |
| 2026-04-27 05:21 | 63.66219 | 141.72763 | 39043 ft | 507 kts | 119° |
| 2026-04-27 05:21 | 63.62651 | 141.86478 | 39047 ft | 507 kts | 119° |
| 2026-04-27 05:22 | 63.59107 | 142.00018 | 39040 ft | 506 kts | 119° |
| 2026-04-27 05:22 | 63.55520 | 142.13641 | 39042 ft | 506 kts | 120° |
| 2026-04-27 05:23 | 63.51927 | 142.27205 | 39041 ft | 506 kts | 120° |
| 2026-04-27 05:23 | 63.48317 | 142.40745 | 39043 ft | 506 kts | 120° |
| 2026-04-27 05:24 | 63.44700 | 142.54234 | 39045 ft | 506 kts | 120° |
| 2026-04-27 05:24 | 63.41071 | 142.67691 | 39043 ft | 505 kts | 120° |
| 2026-04-27 05:25 | 63.37432 | 142.81099 | 39042 ft | 505 kts | 120° |
| 2026-04-27 05:25 | 63.33777 | 142.94490 | 39043 ft | 505 kts | 120° |
| 2026-04-27 05:26 | 63.30118 | 143.07825 | 39045 ft | 505 kts | 120° |
| 2026-04-27 05:26 | 63.26374 | 143.21033 | 39042 ft | 505 kts | 124° |
| 2026-04-27 05:27 | 63.21973 | 143.33086 | 39046 ft | 506 kts | 129° |
| 2026-04-27 05:27 | 63.17409 | 143.44942 | 39050 ft | 506 kts | 129° |
| 2026-04-27 05:28 | 63.12861 | 143.56802 | 39046 ft | 505 kts | 129° |
| 2026-04-27 05:28 | 63.08323 | 143.68678 | 39048 ft | 506 kts | 129° |
| 2026-04-27 05:29 | 63.03784 | 143.80519 | 39048 ft | 506 kts | 129° |
| 2026-04-27 05:29 | 62.99227 | 143.92339 | 39050 ft | 506 kts | 129° |
| 2026-04-27 05:30 | 62.94666 | 144.04103 | 39053 ft | 506 kts | 129° |
| 2026-04-27 05:30 | 62.90088 | 144.15848 | 39054 ft | 506 kts | 129° |
| 2026-04-27 05:31 | 62.85504 | 144.27543 | 39051 ft | 505 kts | 130° |
| 2026-04-27 05:31 | 62.80915 | 144.39194 | 39059 ft | 505 kts | 130° |
| 2026-04-27 05:32 | 62.76319 | 144.50800 | 39063 ft | 505 kts | 130° |
| 2026-04-27 05:32 | 62.71743 | 144.62296 | 39064 ft | 505 kts | 130° |
| 2026-04-27 05:33 | 62.67125 | 144.73840 | 39074 ft | 505 kts | 130° |
| 2026-04-27 05:33 | 62.62494 | 144.85355 | 39076 ft | 505 kts | 130° |
| 2026-04-27 05:34 | 62.57862 | 144.96819 | 39087 ft | 505 kts | 130° |
| 2026-04-27 05:34 | 62.53219 | 145.08252 | 39082 ft | 505 kts | 130° |
| 2026-04-27 05:35 | 62.48558 | 145.19662 | 39095 ft | 505 kts | 130° |
| 2026-04-27 05:35 | 62.43882 | 145.30988 | 39098 ft | 505 kts | 131° |
| 2026-04-27 05:36 | 62.39194 | 145.42285 | 39107 ft | 505 kts | 131° |
| 2026-04-27 05:36 | 62.34501 | 145.53545 | 39103 ft | 505 kts | 131° |
| 2026-04-27 05:37 | 62.29837 | 145.64689 | 39103 ft | 505 kts | 131° |
| 2026-04-27 05:37 | 62.25131 | 145.75878 | 39107 ft | 505 kts | 131° |
| 2026-04-27 05:38 | 62.20415 | 145.87031 | 39105 ft | 505 kts | 131° |
| 2026-04-27 05:38 | 62.15693 | 145.98150 | 39102 ft | 505 kts | 131° |
| 2026-04-27 05:39 | 62.10965 | 146.09235 | 39105 ft | 505 kts | 131° |
| 2026-04-27 05:39 | 62.07028 | 146.18437 | 39109 ft | 505 kts | 131° |
| 2026-04-27 05:40 | 62.02286 | 146.29478 | 39105 ft | 505 kts | 131° |
| 2026-04-27 05:40 | 61.97536 | 146.40486 | 39100 ft | 505 kts | 131° |
| 2026-04-27 05:41 | 61.92778 | 146.51452 | 39096 ft | 505 kts | 131° |
| 2026-04-27 05:41 | 61.88001 | 146.62410 | 39091 ft | 505 kts | 131° |
| 2026-04-27 05:42 | 61.83214 | 146.73334 | 39085 ft | 506 kts | 132° |
| 2026-04-27 05:42 | 61.78422 | 146.84218 | 39080 ft | 506 kts | 132° |
| 2026-04-27 05:43 | 61.73618 | 146.95075 | 39081 ft | 506 kts | 132° |
| 2026-04-27 05:43 | 61.68831 | 147.05842 | 39080 ft | 507 kts | 132° |
| 2026-04-27 05:44 | 61.64006 | 147.16641 | 39078 ft | 507 kts | 132° |
| 2026-04-27 05:44 | 61.59159 | 147.27436 | 39080 ft | 507 kts | 132° |
| 2026-04-27 05:45 | 61.54308 | 147.38188 | 39081 ft | 507 kts | 132° |
| 2026-04-27 05:45 | 61.49444 | 147.48919 | 39077 ft | 507 kts | 132° |
| 2026-04-27 05:46 | 61.44576 | 147.59602 | 39080 ft | 508 kts | 133° |
| 2026-04-27 05:46 | 61.39697 | 147.70263 | 39081 ft | 508 kts | 133° |
| 2026-04-27 05:47 | 61.34812 | 147.80891 | 39085 ft | 508 kts | 133° |
| 2026-04-27 05:47 | 61.29911 | 147.91486 | 39086 ft | 508 kts | 133° |
| 2026-04-27 05:48 | 61.24991 | 148.02020 | 39088 ft | 508 kts | 133° |
| 2026-04-27 05:48 | 61.20060 | 148.12525 | 39091 ft | 508 kts | 133° |
| 2026-04-27 05:49 | 61.15163 | 148.22919 | 39095 ft | 508 kts | 133° |
| 2026-04-27 05:49 | 61.10213 | 148.33378 | 39090 ft | 508 kts | 133° |
| 2026-04-27 05:50 | 61.05262 | 148.43796 | 39086 ft | 508 kts | 133° |
| 2026-04-27 05:50 | 61.00299 | 148.54184 | 39083 ft | 508 kts | 134° |
| 2026-04-27 05:51 | 60.95323 | 148.64551 | 39076 ft | 508 kts | 134° |
| 2026-04-27 05:51 | 60.90349 | 148.74866 | 39072 ft | 508 kts | 134° |
| 2026-04-27 05:52 | 60.85362 | 148.85167 | 39069 ft | 508 kts | 134° |
| 2026-04-27 05:52 | 60.80390 | 148.95382 | 39068 ft | 509 kts | 134° |
| 2026-04-27 05:53 | 60.75379 | 149.05636 | 39067 ft | 509 kts | 134° |
| 2026-04-27 05:53 | 60.70371 | 149.15873 | 39061 ft | 509 kts | 134° |
| 2026-04-27 05:54 | 60.65350 | 149.26102 | 39062 ft | 510 kts | 134° |
| 2026-04-27 05:54 | 60.60325 | 149.36288 | 39070 ft | 510 kts | 134° |
| 2026-04-27 05:55 | 60.55290 | 149.46445 | 39065 ft | 510 kts | 134° |
| 2026-04-27 05:55 | 60.50252 | 149.56565 | 39071 ft | 509 kts | 134° |
| 2026-04-27 05:56 | 60.45206 | 149.66653 | 39073 ft | 509 kts | 134° |
| 2026-04-27 05:56 | 60.40149 | 149.76718 | 39063 ft | 509 kts | 135° |
| 2026-04-27 05:57 | 60.35085 | 149.86752 | 39063 ft | 509 kts | 135° |
| 2026-04-27 05:57 | 60.30036 | 149.96643 | 39049 ft | 509 kts | 135° |
| 2026-04-27 05:58 | 60.24930 | 150.06548 | 39045 ft | 510 kts | 135° |
| 2026-04-27 05:58 | 60.19848 | 150.16489 | 39041 ft | 510 kts | 135° |
| 2026-04-27 05:59 | 60.14771 | 150.26444 | 39035 ft | 510 kts | 135° |
| 2026-04-27 05:59 | 60.13912 | 150.28121 | 39034 ft | 510 kts | 135° |
| 2026-04-27 06:00 | 60.09274 | 150.37128 | 39031 ft | 510 kts | 135° |
| 2026-04-27 06:00 | 60.04150 | 150.46951 | 39020 ft | 510 kts | 136° |
| 2026-04-27 06:01 | 59.99022 | 150.56741 | 39022 ft | 509 kts | 136° |
| 2026-04-27 06:01 | 59.93903 | 150.66493 | 39024 ft | 508 kts | 136° |
| 2026-04-27 06:02 | 59.88567 | 150.75714 | 39017 ft | 508 kts | 144° |
| 2026-04-27 06:02 | 59.82797 | 150.83821 | 39024 ft | 507 kts | 144° |
| 2026-04-27 06:03 | 59.77035 | 150.91870 | 39018 ft | 507 kts | 144° |
| 2026-04-27 06:03 | 59.71286 | 150.99985 | 39027 ft | 507 kts | 144° |
| 2026-04-27 06:04 | 59.65588 | 151.08024 | 39042 ft | 506 kts | 144° |
| 2026-04-27 06:04 | 59.59792 | 151.16103 | 39049 ft | 507 kts | 145° |
| 2026-04-27 06:05 | 59.54012 | 151.23895 | 39049 ft | 507 kts | 146° |
| 2026-04-27 06:05 | 59.48186 | 151.31698 | 39058 ft | 506 kts | 146° |
| 2026-04-27 06:06 | 59.42356 | 151.39513 | 39064 ft | 507 kts | 146° |
| 2026-04-27 06:06 | 59.36536 | 151.47295 | 39064 ft | 507 kts | 146° |
| 2026-04-27 06:07 | 59.30696 | 151.55068 | 39075 ft | 507 kts | 146° |
| 2026-04-27 06:07 | 59.24869 | 151.62840 | 39074 ft | 507 kts | 146° |
| 2026-04-27 06:08 | 59.19038 | 151.70609 | 39071 ft | 507 kts | 146° |
| 2026-04-27 06:08 | 59.13201 | 151.78351 | 39071 ft | 508 kts | 146° |
| 2026-04-27 06:09 | 59.07352 | 151.86075 | 39072 ft | 508 kts | 146° |
| 2026-04-27 06:09 | 59.01512 | 151.93806 | 39071 ft | 508 kts | 146° |
| 2026-04-27 06:10 | 58.95701 | 152.01487 | 39077 ft | 508 kts | 146° |
| 2026-04-27 06:10 | 58.94715 | 152.02788 | 39078 ft | 508 kts | 146° |
| 2026-04-27 06:11 | 58.78726 | 152.23725 | 39075 ft | 507 kts | 146° |
| 2026-04-27 06:12 | 58.72873 | 152.31329 | 39077 ft | 507 kts | 146° |
| 2026-04-27 06:12 | 58.67058 | 152.38819 | 39081 ft | 507 kts | 147° |
| 2026-04-27 06:13 | 58.61191 | 152.46346 | 39084 ft | 506 kts | 147° |
| 2026-04-27 06:13 | 58.55340 | 152.53884 | 39085 ft | 506 kts | 146° |
| 2026-04-27 06:14 | 58.49963 | 152.61174 | 39084 ft | 506 kts | 144° |
| 2026-04-27 06:15 | 58.49345 | 152.62021 | 39082 ft | 506 kts | 144° |
| 2026-04-27 06:15 | 58.43613 | 152.69852 | 39081 ft | 506 kts | 145° |
| 2026-04-27 06:16 | 58.37867 | 152.77602 | 39085 ft | 506 kts | 145° |
| 2026-04-27 06:16 | 58.32105 | 152.85317 | 39084 ft | 506 kts | 145° |
| 2026-04-27 06:17 | 58.26339 | 152.93012 | 39089 ft | 506 kts | 146° |
| 2026-04-27 06:17 | 58.20579 | 153.00714 | 39087 ft | 506 kts | 145° |
| 2026-04-27 06:18 | 58.14788 | 153.08297 | 39089 ft | 506 kts | 147° |
| 2026-04-27 06:18 | 58.08937 | 153.15565 | 39090 ft | 506 kts | 147° |
| 2026-04-27 06:19 | 58.03033 | 153.22859 | 39090 ft | 507 kts | 147° |
| 2026-04-27 06:19 | 57.97145 | 153.30167 | 39089 ft | 507 kts | 147° |
| 2026-04-27 06:20 | 57.91248 | 153.37476 | 39089 ft | 507 kts | 147° |
| 2026-04-27 06:20 | 57.85353 | 153.44751 | 39089 ft | 507 kts | 147° |
| 2026-04-27 06:21 | 57.79459 | 153.51994 | 39088 ft | 507 kts | 148° |
| 2026-04-27 06:21 | 57.73554 | 153.59236 | 39089 ft | 507 kts | 148° |
| 2026-04-27 06:22 | 57.67691 | 153.66414 | 39089 ft | 507 kts | 148° |
| 2026-04-27 06:22 | 57.61788 | 153.73614 | 39092 ft | 507 kts | 148° |
| 2026-04-27 06:23 | 57.55879 | 153.80793 | 39092 ft | 507 kts | 148° |
| 2026-04-27 06:23 | 57.49972 | 153.87939 | 39093 ft | 506 kts | 148° |
| 2026-04-27 06:24 | 57.44060 | 153.95064 | 39094 ft | 506 kts | 148° |
| 2026-04-27 06:24 | 57.38149 | 154.02158 | 39093 ft | 506 kts | 148° |
| 2026-04-27 06:25 | 57.32229 | 154.09238 | 39096 ft | 506 kts | 148° |
| 2026-04-27 06:25 | 57.26315 | 154.16285 | 39097 ft | 506 kts | 148° |
| 2026-04-27 06:26 | 57.20393 | 154.23315 | 39101 ft | 506 kts | 148° |
| 2026-04-27 06:26 | 57.14453 | 154.30260 | 39100 ft | 505 kts | 149° |
| 2026-04-27 06:27 | 57.08495 | 154.37129 | 39099 ft | 505 kts | 149° |
| 2026-04-27 06:27 | 57.02535 | 154.43980 | 39100 ft | 505 kts | 149° |
| 2026-04-27 06:28 | 56.96568 | 154.50830 | 39101 ft | 505 kts | 149° |
| 2026-04-27 06:28 | 56.90645 | 154.57608 | 39102 ft | 505 kts | 149° |
| 2026-04-27 06:29 | 56.84681 | 154.64406 | 39099 ft | 505 kts | 149° |
| 2026-04-27 06:29 | 56.78709 | 154.71187 | 39105 ft | 505 kts | 149° |
| 2026-04-27 06:30 | 56.72734 | 154.77946 | 39104 ft | 505 kts | 149° |
| 2026-04-27 06:30 | 56.66749 | 154.84691 | 39103 ft | 505 kts | 149° |
| 2026-04-27 06:31 | 56.60769 | 154.91404 | 39104 ft | 506 kts | 150° |
| 2026-04-27 06:31 | 56.54776 | 154.98107 | 39101 ft | 506 kts | 150° |
| 2026-04-27 06:32 | 56.48783 | 155.04784 | 39100 ft | 506 kts | 150° |
| 2026-04-27 06:32 | 56.42785 | 155.11442 | 39102 ft | 506 kts | 150° |
| 2026-04-27 06:33 | 56.36780 | 155.18083 | 39105 ft | 506 kts | 150° |
| 2026-04-27 06:33 | 56.30814 | 155.24657 | 39102 ft | 506 kts | 150° |
| 2026-04-27 06:34 | 56.24798 | 155.31262 | 39099 ft | 506 kts | 150° |
| 2026-04-27 06:34 | 56.18784 | 155.37843 | 39102 ft | 506 kts | 150° |
| 2026-04-27 06:35 | 56.12774 | 155.44464 | 39099 ft | 507 kts | 150° |
| 2026-04-27 06:35 | 56.06782 | 155.51132 | 39096 ft | 507 kts | 150° |
| 2026-04-27 06:36 | 56.00789 | 155.57777 | 39094 ft | 507 kts | 150° |
| 2026-04-27 06:36 | 55.94785 | 155.64394 | 39094 ft | 507 kts | 150° |
| 2026-04-27 06:37 | 55.88786 | 155.70975 | 39094 ft | 507 kts | 150° |
| 2026-04-27 06:37 | 55.82767 | 155.77554 | 39089 ft | 507 kts | 150° |
| 2026-04-27 06:38 | 55.76746 | 155.84111 | 39090 ft | 507 kts | 150° |
| 2026-04-27 06:38 | 55.70759 | 155.90610 | 39088 ft | 508 kts | 150° |
| 2026-04-27 06:39 | 55.64731 | 155.97129 | 39082 ft | 508 kts | 150° |
| 2026-04-27 06:39 | 55.58769 | 156.03554 | 39081 ft | 508 kts | 150° |
| 2026-04-27 06:40 | 55.52729 | 156.10042 | 39079 ft | 508 kts | 151° |
| 2026-04-27 06:40 | 55.46681 | 156.16515 | 39076 ft | 508 kts | 150° |
| 2026-04-27 06:41 | 55.40669 | 156.22950 | 39076 ft | 508 kts | 151° |
| 2026-04-27 06:41 | 55.34617 | 156.29372 | 39071 ft | 508 kts | 151° |
| 2026-04-27 06:42 | 55.28540 | 156.35760 | 39067 ft | 508 kts | 151° |
| 2026-04-27 06:42 | 55.22471 | 156.42126 | 39070 ft | 509 kts | 151° |
| 2026-04-27 06:43 | 55.16402 | 156.48479 | 39066 ft | 509 kts | 151° |
| 2026-04-27 06:43 | 55.10328 | 156.54809 | 39062 ft | 509 kts | 152° |
| 2026-04-27 06:44 | 55.04232 | 156.61136 | 39060 ft | 509 kts | 152° |
| 2026-04-27 06:44 | 54.98145 | 156.67439 | 39056 ft | 509 kts | 152° |
| 2026-04-27 06:45 | 54.92051 | 156.73724 | 39051 ft | 510 kts | 152° |
| 2026-04-27 06:45 | 54.85987 | 156.79959 | 39054 ft | 510 kts | 152° |
| 2026-04-27 06:46 | 54.79880 | 156.86219 | 39049 ft | 510 kts | 152° |
| 2026-04-27 06:46 | 54.73765 | 156.92467 | 39047 ft | 510 kts | 152° |
| 2026-04-27 06:47 | 54.67637 | 156.98708 | 39043 ft | 511 kts | 152° |
| 2026-04-27 06:47 | 54.61513 | 157.04920 | 39049 ft | 511 kts | 152° |
| 2026-04-27 06:48 | 54.55372 | 157.11129 | 39038 ft | 511 kts | 152° |
| 2026-04-27 06:48 | 54.49232 | 157.17320 | 39034 ft | 512 kts | 152° |
| 2026-04-27 06:49 | 54.43082 | 157.23501 | 39044 ft | 512 kts | 152° |
| 2026-04-27 06:49 | 54.40011 | 157.26580 | 38885 ft | 515 kts | 152° |
| 2026-04-27 06:49 | 54.36865 | 157.29723 | 38001 ft | 526 kts | 153° |
| 2026-04-27 06:50 | 54.33743 | 157.32841 | 37216 ft | 525 kts | 153° |
| 2026-04-27 06:50 | 54.30595 | 157.35983 | 36563 ft | 522 kts | 153° |
| 2026-04-27 06:50 | 54.27473 | 157.39095 | 36051 ft | 516 kts | 153° |
| 2026-04-27 06:50 | 54.24368 | 157.42182 | 35167 ft | 519 kts | 153° |
| 2026-04-27 06:51 | 54.21239 | 157.45283 | 34367 ft | 520 kts | 153° |
| 2026-04-27 06:51 | 54.18100 | 157.48389 | 33411 ft | 522 kts | 154° |
| 2026-04-27 06:51 | 54.14950 | 157.51503 | 32480 ft | 523 kts | 154° |
| 2026-04-27 06:51 | 54.11805 | 157.54608 | 31579 ft | 522 kts | 154° |
| 2026-04-27 06:52 | 54.08656 | 157.57713 | 30656 ft | 522 kts | 154° |
| 2026-04-27 06:52 | 54.05517 | 157.60810 | 29872 ft | 520 kts | 154° |
| 2026-04-27 06:52 | 54.02414 | 157.63874 | 29170 ft | 513 kts | 154° |
| 2026-04-27 06:52 | 54.00331 | 157.65930 | 28740 ft | 508 kts | 154° |
| 2026-04-27 06:53 | 53.97455 | 157.68758 | 28182 ft | 524 kts | 154° |
| 2026-04-27 06:53 | 53.94273 | 157.71869 | 27667 ft | 543 kts | 154° |
| 2026-04-27 06:53 | 53.90952 | 157.75118 | 27314 ft | 556 kts | 154° |
| 2026-04-27 06:53 | 53.87684 | 157.78332 | 27453 ft | 521 kts | 154° |
| 2026-04-27 06:54 | 53.84645 | 157.81327 | 26847 ft | 490 kts | 154° |
| 2026-04-27 06:54 | 53.81766 | 157.84142 | 25934 ft | 468 kts | 154° |
| 2026-04-27 06:54 | 53.78980 | 157.86848 | 24652 ft | 458 kts | 154° |
| 2026-04-27 06:54 | 53.76236 | 157.89493 | 23790 ft | 442 kts | 154° |
| 2026-04-27 06:55 | 53.73578 | 157.92043 | 23245 ft | 438 kts | 154° |
| 2026-04-27 06:55 | 53.70930 | 157.94576 | 22656 ft | 438 kts | 154° |
| 2026-04-27 06:55 | 53.68265 | 157.97125 | 22117 ft | 442 kts | 154° |
| 2026-04-27 06:55 | 53.65582 | 157.99738 | 21554 ft | 448 kts | 151° |
| 2026-04-27 06:56 | 53.63033 | 158.02786 | 20996 ft | 449 kts | 144° |
| 2026-04-27 06:56 | 53.60624 | 158.06115 | 20433 ft | 447 kts | 142° |
| 2026-04-27 06:56 | 53.58276 | 158.09524 | 19873 ft | 443 kts | 141° |
| 2026-04-27 06:56 | 53.55949 | 158.12902 | 19331 ft | 440 kts | 142° |
| 2026-04-27 06:57 | 53.53624 | 158.16221 | 18776 ft | 437 kts | 142° |
| 2026-04-27 06:57 | 53.51298 | 158.19480 | 18241 ft | 434 kts | 142° |
| 2026-04-27 06:57 | 53.48978 | 158.22684 | 17624 ft | 431 kts | 143° |
| 2026-04-27 06:57 | 53.46662 | 158.25855 | 17067 ft | 427 kts | 143° |
| 2026-04-27 06:58 | 53.44367 | 158.28984 | 16527 ft | 423 kts | 143° |
| 2026-04-27 06:58 | 53.40603 | 158.34100 | 15637 ft | 416 kts | 142° |
| 2026-04-27 06:58 | 53.38358 | 158.37146 | 15101 ft | 413 kts | 142° |
| 2026-04-27 06:59 | 53.36138 | 158.40156 | 14573 ft | 409 kts | 142° |
| 2026-04-27 06:59 | 53.33930 | 158.43146 | 14063 ft | 406 kts | 142° |
| 2026-04-27 06:59 | 53.31746 | 158.46101 | 13498 ft | 403 kts | 142° |
| 2026-04-27 06:59 | 53.29575 | 158.49036 | 12959 ft | 399 kts | 142° |
| 2026-04-27 07:00 | 53.27430 | 158.51930 | 12430 ft | 394 kts | 142° |
| 2026-04-27 07:00 | 53.25307 | 158.54792 | 11933 ft | 390 kts | 142° |
| 2026-04-27 07:00 | 53.23210 | 158.57615 | 11600 ft | 381 kts | 142° |
| 2026-04-27 07:00 | 53.21182 | 158.60342 | 11461 ft | 368 kts | 141° |
| 2026-04-27 07:01 | 53.19250 | 158.62940 | 11280 ft | 343 kts | 142° |
| 2026-04-27 07:01 | 53.17473 | 158.65324 | 11149 ft | 312 kts | 142° |
| 2026-04-27 07:01 | 53.15834 | 158.67518 | 11047 ft | 297 kts | 142° |
| 2026-04-27 07:01 | 53.14238 | 158.69601 | 10871 ft | 286 kts | 147° |
| 2026-04-27 07:02 | 53.12470 | 158.71111 | 10482 ft | 286 kts | 159° |
| 2026-04-27 07:02 | 53.10636 | 158.72298 | 10087 ft | 287 kts | 160° |
| 2026-04-27 07:02 | 53.08788 | 158.73460 | 9634 ft | 279 kts | 160° |
| 2026-04-27 07:02 | 53.07015 | 158.74611 | 9223 ft | 267 kts | 159° |
| 2026-04-27 07:03 | 53.05288 | 158.75763 | 8871 ft | 271 kts | 159° |
| 2026-04-27 07:03 | 53.03515 | 158.76959 | 8516 ft | 279 kts | 159° |
| 2026-04-27 07:03 | 53.01709 | 158.78186 | 8065 ft | 281 kts | 159° |
| 2026-04-27 07:03 | 52.99911 | 158.79355 | 7670 ft | 275 kts | 166° |
| 2026-04-27 07:04 | 52.98060 | 158.79473 | 7280 ft | 263 kts | 198° |
| 2026-04-27 07:04 | 52.96455 | 158.78129 | 6810 ft | 259 kts | 224° |
| 2026-04-27 07:04 | 52.95289 | 158.75907 | 6312 ft | 254 kts | 243° |
| 2026-04-27 07:04 | 52.94545 | 158.73276 | 5824 ft | 251 kts | 250° |
| 2026-04-27 07:05 | 52.93898 | 158.70592 | 5335 ft | 249 kts | 250° |
| 2026-04-27 07:05 | 52.93266 | 158.67977 | 4964 ft | 241 kts | 251° |
| 2026-04-27 07:05 | 52.92852 | 158.65328 | 4466 ft | 235 kts | 271° |
| 2026-04-27 07:05 | 52.93299 | 158.62798 | 4047 ft | 227 kts | 305° |
| 2026-04-27 07:06 | 52.94475 | 158.61140 | 3847 ft | 224 kts | 328° |
| 2026-04-27 07:06 | 52.95765 | 158.59920 | 3556 ft | 201 kts | 329° |
| 2026-04-27 07:06 | 52.96930 | 158.58937 | 3314 ft | 175 kts | 332° |
| 2026-04-27 07:06 | 52.98023 | 158.58128 | 3241 ft | 170 kts | 334° |
| 2026-04-27 07:07 | 52.99098 | 158.57371 | 3026 ft | 165 kts | 334° |
| 2026-04-27 07:07 | 53.00143 | 158.56648 | 2853 ft | 161 kts | 334° |
| 2026-04-27 07:07 | 53.01182 | 158.55931 | 2697 ft | 163 kts | 334° |
| 2026-04-27 07:07 | 53.02231 | 158.55209 | 2539 ft | 163 kts | 334° |
| 2026-04-27 07:08 | 53.03274 | 158.54492 | 2375 ft | 163 kts | 334° |
| 2026-04-27 07:08 | 53.04320 | 158.53773 | 2222 ft | 162 kts | 334° |
| 2026-04-27 07:08 | 53.05362 | 158.53055 | 2029 ft | 162 kts | 334° |
| 2026-04-27 07:08 | 53.06400 | 158.52338 | 1828 ft | 161 kts | 334° |
| 2026-04-27 07:09 | 53.07443 | 158.51621 | 1630 ft | 163 kts | 334° |
| 2026-04-27 07:09 | 53.08490 | 158.50897 | 1444 ft | 164 kts | 334° |
| 2026-04-27 07:09 | 53.09546 | 158.50168 | 1277 ft | 165 kts | 333° |
| 2026-04-27 07:09 | 53.10608 | 158.49419 | 1077 ft | 168 kts | 331° |
| 2026-04-27 07:10 | 53.11696 | 158.48642 | 869 ft | 174 kts | 334° |
| 2026-04-27 07:10 | 53.12797 | 158.47929 | 674 ft | 175 kts | 334° |
| 2026-04-27 07:10 | 53.13901 | 158.47149 | 434 ft | 170 kts | 334° |
| 2026-04-27 07:10 | 53.14978 | 158.46421 | 221 ft | 166 kts | 335° |
| 2026-04-27 07:11 | 53.16010 | 158.45696 | 130 ft | 150 kts | 335° |
| 2026-04-27 07:11 | 53.16848 | 158.45114 | 128 ft | 110 kts | 336° |
| 2026-04-27 07:11 | 53.17415 | 158.44730 | 124 ft | 66 kts | 338° |
| 2026-04-27 07:11 | 53.17699 | 158.44534 | 127 ft | 31 kts | 337° |
| 2026-04-27 07:12 | 53.17903 | 158.44387 | 126 ft | 32 kts | 337° |
| 2026-04-27 07:12 | 53.18101 | 158.44250 | 126 ft | 30 kts | 339° |
| 2026-04-27 07:12 | 53.18251 | 158.44130 | 125 ft | 13 kts | 324° |
| 2026-04-27 07:12 | 53.18295 | 158.44051 | 127 ft | 11 kts | 304° |
| 2026-04-27 07:13 | 53.18305 | 158.43945 | 124 ft | 8 kts | 256° |
| 2026-04-27 07:13 | 53.18278 | 158.43813 | 125 ft | 13 kts | 248° |
| 2026-04-27 07:13 | 53.18244 | 158.43677 | 124 ft | 13 kts | 247° |
| 2026-04-27 07:13 | 53.18248 | 158.43593 | 123 ft | 9 kts | 307° |
| 2026-04-27 07:14 | 53.18297 | 158.43514 | 124 ft | 10 kts | 316° |
| 2026-04-27 07:14 | 53.18299 | 158.43445 | 124 ft | 5 kts | 231° |
| 2026-04-27 07:14 | 53.18288 | 158.43427 | 122 ft | 4 kts | 224° |
| 2026-04-27 07:14 | 53.18261 | 158.43386 | 124 ft | 2 kts | 221° |
| 2026-04-27 07:15 | 53.18255 | 158.43378 | 125 ft | 0 kts | 221° |
| 2026-04-27 07:15 | 53.18255 | 158.43379 | 125 ft | 0 kts | 221° |
| 2026-04-27 07:40 | 53.18256 | 158.43379 | 128 ft | 0 kts | 221° |
| 2026-04-27 07:45 | 53.18256 | 158.43380 | 128 ft | 0 kts | 221° |
| 2026-04-27 08:16 | 53.18256 | 158.43381 | 128 ft | 0 kts | 221° |